<?xml version="1.0" encoding="UTF-8" standalone="no" ?>
<gpx xmlns="http://www.topografix.com/GPX/1/1" xmlns:xsi="http://www.w3.org/2001/XMLSchema-instance" xsi:schemaLocation="http://www.topografix.com/GPX/1/1 http://www.topografix.com/GPX/1/1/gpx.xsd" version="1.1" creator="VisuGPX - https://www.visugpx.com">
  <metadata>
    <name>Rando - Chasse aux champis bredouille.</name>
    <desc><![CDATA[Chasse aux champis qui n'a rien donné ;(]]></desc>
  </metadata>
  <trk>
    <name><![CDATA[01-OCT-17 18:11:15]]></name>
    <trkseg>
      <trkpt lat="44.91823" lon="5.2198">
        <ele>1091.71</ele>
        <time>2017-10-01T13:54:20Z</time>
      </trkpt>
      <trkpt lat="44.91822" lon="5.21979">
        <ele>1091.71</ele>
        <time>2017-10-01T13:54:21Z</time>
      </trkpt>
      <trkpt lat="44.91828" lon="5.22023">
        <ele>1091.71</ele>
        <time>2017-10-01T13:55:52Z</time>
      </trkpt>
      <trkpt lat="44.91827" lon="5.22027">
        <ele>1091.23</ele>
        <time>2017-10-01T13:55:54Z</time>
      </trkpt>
      <trkpt lat="44.91816" lon="5.22045">
        <ele>1091.71</ele>
        <time>2017-10-01T13:56:10Z</time>
      </trkpt>
      <trkpt lat="44.91817" lon="5.22051">
        <ele>1090.27</ele>
        <time>2017-10-01T13:56:19Z</time>
      </trkpt>
      <trkpt lat="44.91816" lon="5.22058">
        <ele>1089.79</ele>
        <time>2017-10-01T13:56:30Z</time>
      </trkpt>
      <trkpt lat="44.91818" lon="5.22046">
        <ele>1089.79</ele>
        <time>2017-10-01T13:56:42Z</time>
      </trkpt>
      <trkpt lat="44.91818" lon="5.22047">
        <ele>1089.79</ele>
        <time>2017-10-01T13:56:47Z</time>
      </trkpt>
      <trkpt lat="44.91818" lon="5.2205">
        <ele>1089.79</ele>
        <time>2017-10-01T13:56:49Z</time>
      </trkpt>
      <trkpt lat="44.91815" lon="5.22058">
        <ele>1089.79</ele>
        <time>2017-10-01T13:57:00Z</time>
      </trkpt>
      <trkpt lat="44.91811" lon="5.2206">
        <ele>1089.79</ele>
        <time>2017-10-01T13:57:06Z</time>
      </trkpt>
      <trkpt lat="44.91807" lon="5.22063">
        <ele>1090.27</ele>
        <time>2017-10-01T13:57:13Z</time>
      </trkpt>
      <trkpt lat="44.91806" lon="5.22064">
        <ele>1090.27</ele>
        <time>2017-10-01T13:57:14Z</time>
      </trkpt>
      <trkpt lat="44.91805" lon="5.22067">
        <ele>1090.27</ele>
        <time>2017-10-01T13:57:16Z</time>
      </trkpt>
      <trkpt lat="44.91803" lon="5.22076">
        <ele>1089.79</ele>
        <time>2017-10-01T13:57:22Z</time>
      </trkpt>
      <trkpt lat="44.91804" lon="5.22084">
        <ele>1089.79</ele>
        <time>2017-10-01T13:57:27Z</time>
      </trkpt>
      <trkpt lat="44.91804" lon="5.22096">
        <ele>1088.83</ele>
        <time>2017-10-01T13:57:40Z</time>
      </trkpt>
      <trkpt lat="44.91806" lon="5.22112">
        <ele>1087.39</ele>
        <time>2017-10-01T13:57:50Z</time>
      </trkpt>
      <trkpt lat="44.91804" lon="5.22119">
        <ele>1086.91</ele>
        <time>2017-10-01T13:57:54Z</time>
      </trkpt>
      <trkpt lat="44.91798" lon="5.22117">
        <ele>1087.39</ele>
        <time>2017-10-01T13:58:06Z</time>
      </trkpt>
      <trkpt lat="44.91798" lon="5.22118">
        <ele>1088.35</ele>
        <time>2017-10-01T13:58:22Z</time>
      </trkpt>
      <trkpt lat="44.91792" lon="5.22123">
        <ele>1088.83</ele>
        <time>2017-10-01T13:58:32Z</time>
      </trkpt>
      <trkpt lat="44.91785" lon="5.22126">
        <ele>1088.83</ele>
        <time>2017-10-01T13:58:46Z</time>
      </trkpt>
      <trkpt lat="44.91785" lon="5.22132">
        <ele>1088.83</ele>
        <time>2017-10-01T13:59:00Z</time>
      </trkpt>
      <trkpt lat="44.91787" lon="5.22148">
        <ele>1087.87</ele>
        <time>2017-10-01T13:59:12Z</time>
      </trkpt>
      <trkpt lat="44.91794" lon="5.22153">
        <ele>1088.83</ele>
        <time>2017-10-01T13:59:24Z</time>
      </trkpt>
      <trkpt lat="44.91799" lon="5.22163">
        <ele>1088.35</ele>
        <time>2017-10-01T13:59:37Z</time>
      </trkpt>
      <trkpt lat="44.91803" lon="5.2217">
        <ele>1088.83</ele>
        <time>2017-10-01T13:59:51Z</time>
      </trkpt>
      <trkpt lat="44.91806" lon="5.22169">
        <ele>1089.31</ele>
        <time>2017-10-01T14:00:03Z</time>
      </trkpt>
      <trkpt lat="44.91808" lon="5.22175">
        <ele>1088.35</ele>
        <time>2017-10-01T14:00:18Z</time>
      </trkpt>
      <trkpt lat="44.9181" lon="5.22178">
        <ele>1087.87</ele>
        <time>2017-10-01T14:00:24Z</time>
      </trkpt>
      <trkpt lat="44.91818" lon="5.22191">
        <ele>1086.91</ele>
        <time>2017-10-01T14:00:37Z</time>
      </trkpt>
      <trkpt lat="44.9182" lon="5.22197">
        <ele>1085.95</ele>
        <time>2017-10-01T14:00:48Z</time>
      </trkpt>
      <trkpt lat="44.91821" lon="5.22199">
        <ele>1084.99</ele>
        <time>2017-10-01T14:01:02Z</time>
      </trkpt>
      <trkpt lat="44.91826" lon="5.22214">
        <ele>1084.02</ele>
        <time>2017-10-01T14:01:16Z</time>
      </trkpt>
      <trkpt lat="44.91828" lon="5.22224">
        <ele>1083.06</ele>
        <time>2017-10-01T14:01:29Z</time>
      </trkpt>
      <trkpt lat="44.91825" lon="5.22233">
        <ele>1083.06</ele>
        <time>2017-10-01T14:01:42Z</time>
      </trkpt>
      <trkpt lat="44.91826" lon="5.22235">
        <ele>1082.58</ele>
        <time>2017-10-01T14:01:45Z</time>
      </trkpt>
      <trkpt lat="44.91837" lon="5.22241">
        <ele>1081.62</ele>
        <time>2017-10-01T14:01:58Z</time>
      </trkpt>
      <trkpt lat="44.91843" lon="5.22251">
        <ele>1079.7</ele>
        <time>2017-10-01T14:02:08Z</time>
      </trkpt>
      <trkpt lat="44.91846" lon="5.22263">
        <ele>1079.22</ele>
        <time>2017-10-01T14:02:19Z</time>
      </trkpt>
      <trkpt lat="44.91852" lon="5.22279">
        <ele>1077.78</ele>
        <time>2017-10-01T14:02:31Z</time>
      </trkpt>
      <trkpt lat="44.9185" lon="5.2229">
        <ele>1075.85</ele>
        <time>2017-10-01T14:02:44Z</time>
      </trkpt>
      <trkpt lat="44.91847" lon="5.22306">
        <ele>1076.33</ele>
        <time>2017-10-01T14:02:55Z</time>
      </trkpt>
      <trkpt lat="44.91848" lon="5.22322">
        <ele>1072.97</ele>
        <time>2017-10-01T14:03:06Z</time>
      </trkpt>
      <trkpt lat="44.91848" lon="5.22325">
        <ele>1075.37</ele>
        <time>2017-10-01T14:03:19Z</time>
      </trkpt>
      <trkpt lat="44.91846" lon="5.22329">
        <ele>1075.85</ele>
        <time>2017-10-01T14:03:33Z</time>
      </trkpt>
      <trkpt lat="44.91844" lon="5.22334">
        <ele>1076.33</ele>
        <time>2017-10-01T14:03:46Z</time>
      </trkpt>
      <trkpt lat="44.91843" lon="5.22344">
        <ele>1076.81</ele>
        <time>2017-10-01T14:03:59Z</time>
      </trkpt>
      <trkpt lat="44.9184" lon="5.22349">
        <ele>1077.78</ele>
        <time>2017-10-01T14:04:11Z</time>
      </trkpt>
      <trkpt lat="44.91837" lon="5.22351">
        <ele>1079.22</ele>
        <time>2017-10-01T14:04:23Z</time>
      </trkpt>
      <trkpt lat="44.91828" lon="5.22357">
        <ele>1080.66</ele>
        <time>2017-10-01T14:04:37Z</time>
      </trkpt>
      <trkpt lat="44.91827" lon="5.22362">
        <ele>1081.62</ele>
        <time>2017-10-01T14:04:52Z</time>
      </trkpt>
      <trkpt lat="44.91824" lon="5.22367">
        <ele>1084.99</ele>
        <time>2017-10-01T14:05:09Z</time>
      </trkpt>
      <trkpt lat="44.91823" lon="5.22372">
        <ele>1085.47</ele>
        <time>2017-10-01T14:05:24Z</time>
      </trkpt>
      <trkpt lat="44.91826" lon="5.22386">
        <ele>1086.43</ele>
        <time>2017-10-01T14:05:38Z</time>
      </trkpt>
      <trkpt lat="44.91823" lon="5.2239">
        <ele>1087.87</ele>
        <time>2017-10-01T14:05:55Z</time>
      </trkpt>
      <trkpt lat="44.91824" lon="5.22399">
        <ele>1089.31</ele>
        <time>2017-10-01T14:06:07Z</time>
      </trkpt>
      <trkpt lat="44.91817" lon="5.22403">
        <ele>1090.75</ele>
        <time>2017-10-01T14:06:19Z</time>
      </trkpt>
      <trkpt lat="44.91808" lon="5.224">
        <ele>1092.68</ele>
        <time>2017-10-01T14:06:36Z</time>
      </trkpt>
      <trkpt lat="44.91807" lon="5.22404">
        <ele>1094.12</ele>
        <time>2017-10-01T14:06:52Z</time>
      </trkpt>
      <trkpt lat="44.91815" lon="5.2242">
        <ele>1094.6</ele>
        <time>2017-10-01T14:07:06Z</time>
      </trkpt>
      <trkpt lat="44.91822" lon="5.22434">
        <ele>1096.52</ele>
        <time>2017-10-01T14:07:21Z</time>
      </trkpt>
      <trkpt lat="44.91819" lon="5.22439">
        <ele>1097</ele>
        <time>2017-10-01T14:07:32Z</time>
      </trkpt>
      <trkpt lat="44.91823" lon="5.22441">
        <ele>1097.96</ele>
        <time>2017-10-01T14:07:45Z</time>
      </trkpt>
      <trkpt lat="44.91828" lon="5.22443">
        <ele>1097.48</ele>
        <time>2017-10-01T14:07:52Z</time>
      </trkpt>
      <trkpt lat="44.91838" lon="5.22445">
        <ele>1097.48</ele>
        <time>2017-10-01T14:08:08Z</time>
      </trkpt>
      <trkpt lat="44.91845" lon="5.22451">
        <ele>1097.48</ele>
        <time>2017-10-01T14:08:22Z</time>
      </trkpt>
      <trkpt lat="44.91845" lon="5.22451">
        <ele>1096.04</ele>
        <time>2017-10-01T14:08:31Z</time>
      </trkpt>
      <trkpt lat="44.91845" lon="5.22451">
        <ele>1097.96</ele>
        <time>2017-10-01T14:08:33Z</time>
      </trkpt>
      <trkpt lat="44.91845" lon="5.22451">
        <ele>1098.44</ele>
        <time>2017-10-01T14:08:51Z</time>
      </trkpt>
      <trkpt lat="44.91853" lon="5.22457">
        <ele>1099.4</ele>
        <time>2017-10-01T14:09:05Z</time>
      </trkpt>
      <trkpt lat="44.91856" lon="5.22456">
        <ele>1098.44</ele>
        <time>2017-10-01T14:09:20Z</time>
      </trkpt>
      <trkpt lat="44.91858" lon="5.22447">
        <ele>1096.52</ele>
        <time>2017-10-01T14:09:36Z</time>
      </trkpt>
      <trkpt lat="44.91863" lon="5.2244">
        <ele>1095.56</ele>
        <time>2017-10-01T14:09:48Z</time>
      </trkpt>
      <trkpt lat="44.9187" lon="5.22432">
        <ele>1095.08</ele>
        <time>2017-10-01T14:10:03Z</time>
      </trkpt>
      <trkpt lat="44.91875" lon="5.22427">
        <ele>1094.12</ele>
        <time>2017-10-01T14:10:19Z</time>
      </trkpt>
      <trkpt lat="44.91876" lon="5.22421">
        <ele>1093.64</ele>
        <time>2017-10-01T14:10:28Z</time>
      </trkpt>
      <trkpt lat="44.91894" lon="5.22429">
        <ele>1093.16</ele>
        <time>2017-10-01T14:10:39Z</time>
      </trkpt>
      <trkpt lat="44.91901" lon="5.22423">
        <ele>1092.2</ele>
        <time>2017-10-01T14:10:44Z</time>
      </trkpt>
      <trkpt lat="44.91907" lon="5.22408">
        <ele>1090.75</ele>
        <time>2017-10-01T14:10:58Z</time>
      </trkpt>
      <trkpt lat="44.91911" lon="5.22402">
        <ele>1090.75</ele>
        <time>2017-10-01T14:11:10Z</time>
      </trkpt>
      <trkpt lat="44.91914" lon="5.22404">
        <ele>1090.75</ele>
        <time>2017-10-01T14:11:21Z</time>
      </trkpt>
      <trkpt lat="44.91918" lon="5.2241">
        <ele>1090.27</ele>
        <time>2017-10-01T14:11:30Z</time>
      </trkpt>
      <trkpt lat="44.91922" lon="5.22401">
        <ele>1089.31</ele>
        <time>2017-10-01T14:11:43Z</time>
      </trkpt>
      <trkpt lat="44.91925" lon="5.2239">
        <ele>1088.83</ele>
        <time>2017-10-01T14:11:55Z</time>
      </trkpt>
      <trkpt lat="44.9193" lon="5.22384">
        <ele>1088.35</ele>
        <time>2017-10-01T14:12:07Z</time>
      </trkpt>
      <trkpt lat="44.91934" lon="5.22377">
        <ele>1087.87</ele>
        <time>2017-10-01T14:12:18Z</time>
      </trkpt>
      <trkpt lat="44.91936" lon="5.22377">
        <ele>1087.39</ele>
        <time>2017-10-01T14:12:20Z</time>
      </trkpt>
      <trkpt lat="44.91945" lon="5.22385">
        <ele>1085.95</ele>
        <time>2017-10-01T14:12:31Z</time>
      </trkpt>
      <trkpt lat="44.91946" lon="5.22382">
        <ele>1086.43</ele>
        <time>2017-10-01T14:12:40Z</time>
      </trkpt>
      <trkpt lat="44.91961" lon="5.22382">
        <ele>1085.95</ele>
        <time>2017-10-01T14:12:51Z</time>
      </trkpt>
      <trkpt lat="44.91963" lon="5.22381">
        <ele>1085.47</ele>
        <time>2017-10-01T14:12:54Z</time>
      </trkpt>
      <trkpt lat="44.9197" lon="5.22375">
        <ele>1084.02</ele>
        <time>2017-10-01T14:13:05Z</time>
      </trkpt>
      <trkpt lat="44.91986" lon="5.2239">
        <ele>1081.62</ele>
        <time>2017-10-01T14:13:19Z</time>
      </trkpt>
      <trkpt lat="44.91997" lon="5.22401">
        <ele>1079.22</ele>
        <time>2017-10-01T14:13:33Z</time>
      </trkpt>
      <trkpt lat="44.92011" lon="5.22402">
        <ele>1077.29</ele>
        <time>2017-10-01T14:13:46Z</time>
      </trkpt>
      <trkpt lat="44.92022" lon="5.22402">
        <ele>1076.33</ele>
        <time>2017-10-01T14:13:53Z</time>
      </trkpt>
      <trkpt lat="44.92032" lon="5.22405">
        <ele>1075.37</ele>
        <time>2017-10-01T14:14:03Z</time>
      </trkpt>
      <trkpt lat="44.92036" lon="5.22408">
        <ele>1074.41</ele>
        <time>2017-10-01T14:14:07Z</time>
      </trkpt>
      <trkpt lat="44.92042" lon="5.22414">
        <ele>1074.41</ele>
        <time>2017-10-01T14:14:13Z</time>
      </trkpt>
      <trkpt lat="44.92046" lon="5.22423">
        <ele>1073.45</ele>
        <time>2017-10-01T14:14:20Z</time>
      </trkpt>
      <trkpt lat="44.9205" lon="5.22437">
        <ele>1072.01</ele>
        <time>2017-10-01T14:14:30Z</time>
      </trkpt>
      <trkpt lat="44.92055" lon="5.22454">
        <ele>1071.53</ele>
        <time>2017-10-01T14:14:41Z</time>
      </trkpt>
      <trkpt lat="44.92057" lon="5.22463">
        <ele>1071.05</ele>
        <time>2017-10-01T14:14:47Z</time>
      </trkpt>
      <trkpt lat="44.92066" lon="5.22477">
        <ele>1069.12</ele>
        <time>2017-10-01T14:14:58Z</time>
      </trkpt>
      <trkpt lat="44.92068" lon="5.2248">
        <ele>1069.12</ele>
        <time>2017-10-01T14:15:01Z</time>
      </trkpt>
      <trkpt lat="44.9207" lon="5.22483">
        <ele>1069.12</ele>
        <time>2017-10-01T14:15:03Z</time>
      </trkpt>
      <trkpt lat="44.92076" lon="5.22498">
        <ele>1068.16</ele>
        <time>2017-10-01T14:15:13Z</time>
      </trkpt>
      <trkpt lat="44.92082" lon="5.22507">
        <ele>1067.2</ele>
        <time>2017-10-01T14:15:19Z</time>
      </trkpt>
      <trkpt lat="44.9209" lon="5.22511">
        <ele>1066.24</ele>
        <time>2017-10-01T14:15:28Z</time>
      </trkpt>
      <trkpt lat="44.92104" lon="5.22516">
        <ele>1063.36</ele>
        <time>2017-10-01T14:15:40Z</time>
      </trkpt>
      <trkpt lat="44.92112" lon="5.22517">
        <ele>1062.87</ele>
        <time>2017-10-01T14:15:46Z</time>
      </trkpt>
      <trkpt lat="44.92124" lon="5.22519">
        <ele>1062.39</ele>
        <time>2017-10-01T14:15:58Z</time>
      </trkpt>
      <trkpt lat="44.92133" lon="5.22529">
        <ele>1061.43</ele>
        <time>2017-10-01T14:16:09Z</time>
      </trkpt>
      <trkpt lat="44.92138" lon="5.22526">
        <ele>1060.95</ele>
        <time>2017-10-01T14:16:14Z</time>
      </trkpt>
      <trkpt lat="44.92149" lon="5.22533">
        <ele>1059.99</ele>
        <time>2017-10-01T14:16:25Z</time>
      </trkpt>
      <trkpt lat="44.92152" lon="5.22542">
        <ele>1058.55</ele>
        <time>2017-10-01T14:16:30Z</time>
      </trkpt>
      <trkpt lat="44.92154" lon="5.22546">
        <ele>1057.59</ele>
        <time>2017-10-01T14:16:34Z</time>
      </trkpt>
      <trkpt lat="44.92156" lon="5.22554">
        <ele>1056.63</ele>
        <time>2017-10-01T14:16:38Z</time>
      </trkpt>
      <trkpt lat="44.9216" lon="5.22557">
        <ele>1055.67</ele>
        <time>2017-10-01T14:16:44Z</time>
      </trkpt>
      <trkpt lat="44.92169" lon="5.22563">
        <ele>1055.18</ele>
        <time>2017-10-01T14:16:56Z</time>
      </trkpt>
      <trkpt lat="44.92175" lon="5.22569">
        <ele>1054.22</ele>
        <time>2017-10-01T14:17:09Z</time>
      </trkpt>
      <trkpt lat="44.92177" lon="5.2257">
        <ele>1054.7</ele>
        <time>2017-10-01T14:17:23Z</time>
      </trkpt>
      <trkpt lat="44.92193" lon="5.2258">
        <ele>1053.26</ele>
        <time>2017-10-01T14:17:36Z</time>
      </trkpt>
      <trkpt lat="44.92202" lon="5.22582">
        <ele>1051.82</ele>
        <time>2017-10-01T14:17:49Z</time>
      </trkpt>
      <trkpt lat="44.92214" lon="5.22594">
        <ele>1050.86</ele>
        <time>2017-10-01T14:18:03Z</time>
      </trkpt>
      <trkpt lat="44.92223" lon="5.22601">
        <ele>1049.42</ele>
        <time>2017-10-01T14:18:12Z</time>
      </trkpt>
      <trkpt lat="44.9223" lon="5.22605">
        <ele>1047.97</ele>
        <time>2017-10-01T14:18:23Z</time>
      </trkpt>
      <trkpt lat="44.92231" lon="5.22613">
        <ele>1047.97</ele>
        <time>2017-10-01T14:18:27Z</time>
      </trkpt>
      <trkpt lat="44.92228" lon="5.22622">
        <ele>1047.49</ele>
        <time>2017-10-01T14:18:31Z</time>
      </trkpt>
      <trkpt lat="44.92225" lon="5.22625">
        <ele>1047.97</ele>
        <time>2017-10-01T14:18:34Z</time>
      </trkpt>
      <trkpt lat="44.9222" lon="5.22631">
        <ele>1047.97</ele>
        <time>2017-10-01T14:18:39Z</time>
      </trkpt>
      <trkpt lat="44.92218" lon="5.22641">
        <ele>1047.97</ele>
        <time>2017-10-01T14:18:47Z</time>
      </trkpt>
      <trkpt lat="44.9222" lon="5.22645">
        <ele>1047.97</ele>
        <time>2017-10-01T14:18:51Z</time>
      </trkpt>
      <trkpt lat="44.92225" lon="5.2265">
        <ele>1047.49</ele>
        <time>2017-10-01T14:18:57Z</time>
      </trkpt>
      <trkpt lat="44.92231" lon="5.22654">
        <ele>1047.49</ele>
        <time>2017-10-01T14:19:01Z</time>
      </trkpt>
      <trkpt lat="44.92239" lon="5.22666">
        <ele>1046.05</ele>
        <time>2017-10-01T14:19:16Z</time>
      </trkpt>
      <trkpt lat="44.92248" lon="5.22679">
        <ele>1044.13</ele>
        <time>2017-10-01T14:19:26Z</time>
      </trkpt>
      <trkpt lat="44.92256" lon="5.22685">
        <ele>1043.17</ele>
        <time>2017-10-01T14:19:34Z</time>
      </trkpt>
      <trkpt lat="44.92267" lon="5.227">
        <ele>1040.76</ele>
        <time>2017-10-01T14:19:48Z</time>
      </trkpt>
      <trkpt lat="44.92268" lon="5.22703">
        <ele>1040.28</ele>
        <time>2017-10-01T14:19:50Z</time>
      </trkpt>
      <trkpt lat="44.92275" lon="5.22721">
        <ele>1038.36</ele>
        <time>2017-10-01T14:20:03Z</time>
      </trkpt>
      <trkpt lat="44.92276" lon="5.22722">
        <ele>1037.88</ele>
        <time>2017-10-01T14:20:04Z</time>
      </trkpt>
      <trkpt lat="44.92272" lon="5.22735">
        <ele>1036.44</ele>
        <time>2017-10-01T14:20:15Z</time>
      </trkpt>
      <trkpt lat="44.92272" lon="5.22736">
        <ele>1035.96</ele>
        <time>2017-10-01T14:20:17Z</time>
      </trkpt>
      <trkpt lat="44.92269" lon="5.22742">
        <ele>1035</ele>
        <time>2017-10-01T14:20:29Z</time>
      </trkpt>
      <trkpt lat="44.92261" lon="5.22749">
        <ele>1035.48</ele>
        <time>2017-10-01T14:20:39Z</time>
      </trkpt>
      <trkpt lat="44.92255" lon="5.2276">
        <ele>1035</ele>
        <time>2017-10-01T14:20:52Z</time>
      </trkpt>
      <trkpt lat="44.92253" lon="5.22765">
        <ele>1033.55</ele>
        <time>2017-10-01T14:21:05Z</time>
      </trkpt>
      <trkpt lat="44.92251" lon="5.22771">
        <ele>1032.59</ele>
        <time>2017-10-01T14:21:19Z</time>
      </trkpt>
      <trkpt lat="44.92252" lon="5.22772">
        <ele>1031.63</ele>
        <time>2017-10-01T14:21:34Z</time>
      </trkpt>
      <trkpt lat="44.92255" lon="5.22777">
        <ele>1029.71</ele>
        <time>2017-10-01T14:21:51Z</time>
      </trkpt>
      <trkpt lat="44.92256" lon="5.22783">
        <ele>1028.27</ele>
        <time>2017-10-01T14:22:03Z</time>
      </trkpt>
      <trkpt lat="44.92253" lon="5.22789">
        <ele>1027.79</ele>
        <time>2017-10-01T14:22:17Z</time>
      </trkpt>
      <trkpt lat="44.92255" lon="5.22792">
        <ele>1026.34</ele>
        <time>2017-10-01T14:22:30Z</time>
      </trkpt>
      <trkpt lat="44.92259" lon="5.22797">
        <ele>1024.9</ele>
        <time>2017-10-01T14:22:44Z</time>
      </trkpt>
      <trkpt lat="44.92265" lon="5.22804">
        <ele>1024.9</ele>
        <time>2017-10-01T14:22:53Z</time>
      </trkpt>
      <trkpt lat="44.92265" lon="5.22805">
        <ele>1023.46</ele>
        <time>2017-10-01T14:23:06Z</time>
      </trkpt>
      <trkpt lat="44.92257" lon="5.22818">
        <ele>1022.5</ele>
        <time>2017-10-01T14:23:19Z</time>
      </trkpt>
      <trkpt lat="44.92253" lon="5.22818">
        <ele>1022.5</ele>
        <time>2017-10-01T14:23:23Z</time>
      </trkpt>
      <trkpt lat="44.92246" lon="5.2282">
        <ele>1022.02</ele>
        <time>2017-10-01T14:23:34Z</time>
      </trkpt>
      <trkpt lat="44.92246" lon="5.22832">
        <ele>1020.1</ele>
        <time>2017-10-01T14:23:47Z</time>
      </trkpt>
      <trkpt lat="44.92248" lon="5.22844">
        <ele>1018.65</ele>
        <time>2017-10-01T14:24:00Z</time>
      </trkpt>
      <trkpt lat="44.92245" lon="5.22847">
        <ele>1017.21</ele>
        <time>2017-10-01T14:24:11Z</time>
      </trkpt>
      <trkpt lat="44.92243" lon="5.22854">
        <ele>1016.73</ele>
        <time>2017-10-01T14:24:21Z</time>
      </trkpt>
      <trkpt lat="44.92238" lon="5.22866">
        <ele>1016.25</ele>
        <time>2017-10-01T14:24:38Z</time>
      </trkpt>
      <trkpt lat="44.92235" lon="5.2287">
        <ele>1015.77</ele>
        <time>2017-10-01T14:24:47Z</time>
      </trkpt>
      <trkpt lat="44.92243" lon="5.22864">
        <ele>1015.77</ele>
        <time>2017-10-01T14:24:58Z</time>
      </trkpt>
      <trkpt lat="44.92251" lon="5.22859">
        <ele>1016.25</ele>
        <time>2017-10-01T14:25:08Z</time>
      </trkpt>
      <trkpt lat="44.92252" lon="5.22859">
        <ele>1015.77</ele>
        <time>2017-10-01T14:25:09Z</time>
      </trkpt>
      <trkpt lat="44.92249" lon="5.22865">
        <ele>1016.25</ele>
        <time>2017-10-01T14:25:17Z</time>
      </trkpt>
      <trkpt lat="44.92241" lon="5.22867">
        <ele>1016.25</ele>
        <time>2017-10-01T14:25:29Z</time>
      </trkpt>
      <trkpt lat="44.92237" lon="5.22872">
        <ele>1017.21</ele>
        <time>2017-10-01T14:25:40Z</time>
      </trkpt>
      <trkpt lat="44.92226" lon="5.22875">
        <ele>1017.69</ele>
        <time>2017-10-01T14:25:54Z</time>
      </trkpt>
      <trkpt lat="44.92213" lon="5.22875">
        <ele>1018.65</ele>
        <time>2017-10-01T14:26:10Z</time>
      </trkpt>
      <trkpt lat="44.92212" lon="5.22874">
        <ele>1022.5</ele>
        <time>2017-10-01T14:26:17Z</time>
      </trkpt>
      <trkpt lat="44.92212" lon="5.22874">
        <ele>1018.65</ele>
        <time>2017-10-01T14:26:18Z</time>
      </trkpt>
      <trkpt lat="44.92212" lon="5.22874">
        <ele>1014.81</ele>
        <time>2017-10-01T14:26:19Z</time>
      </trkpt>
      <trkpt lat="44.92212" lon="5.22874">
        <ele>1024.9</ele>
        <time>2017-10-01T14:26:20Z</time>
      </trkpt>
      <trkpt lat="44.92212" lon="5.22874">
        <ele>1019.13</ele>
        <time>2017-10-01T14:26:21Z</time>
      </trkpt>
      <trkpt lat="44.92212" lon="5.22874">
        <ele>1015.29</ele>
        <time>2017-10-01T14:26:22Z</time>
      </trkpt>
      <trkpt lat="44.92212" lon="5.22874">
        <ele>1016.25</ele>
        <time>2017-10-01T14:26:23Z</time>
      </trkpt>
      <trkpt lat="44.92212" lon="5.22874">
        <ele>1023.94</ele>
        <time>2017-10-01T14:26:24Z</time>
      </trkpt>
      <trkpt lat="44.92212" lon="5.22874">
        <ele>1020.1</ele>
        <time>2017-10-01T14:26:26Z</time>
      </trkpt>
      <trkpt lat="44.92207" lon="5.22875">
        <ele>1021.06</ele>
        <time>2017-10-01T14:26:40Z</time>
      </trkpt>
      <trkpt lat="44.92196" lon="5.2288">
        <ele>1022.02</ele>
        <time>2017-10-01T14:26:54Z</time>
      </trkpt>
      <trkpt lat="44.92187" lon="5.22881">
        <ele>1023.94</ele>
        <time>2017-10-01T14:27:09Z</time>
      </trkpt>
      <trkpt lat="44.92182" lon="5.22887">
        <ele>1025.86</ele>
        <time>2017-10-01T14:27:20Z</time>
      </trkpt>
      <trkpt lat="44.92176" lon="5.22892">
        <ele>1027.79</ele>
        <time>2017-10-01T14:27:35Z</time>
      </trkpt>
      <trkpt lat="44.92168" lon="5.22896">
        <ele>1030.19</ele>
        <time>2017-10-01T14:27:50Z</time>
      </trkpt>
      <trkpt lat="44.92161" lon="5.22905">
        <ele>1031.63</ele>
        <time>2017-10-01T14:28:03Z</time>
      </trkpt>
      <trkpt lat="44.92158" lon="5.22915">
        <ele>1031.63</ele>
        <time>2017-10-01T14:28:16Z</time>
      </trkpt>
      <trkpt lat="44.92158" lon="5.22924">
        <ele>1031.15</ele>
        <time>2017-10-01T14:28:30Z</time>
      </trkpt>
      <trkpt lat="44.92161" lon="5.22931">
        <ele>1030.19</ele>
        <time>2017-10-01T14:28:41Z</time>
      </trkpt>
      <trkpt lat="44.92166" lon="5.22935">
        <ele>1030.19</ele>
        <time>2017-10-01T14:28:58Z</time>
      </trkpt>
      <trkpt lat="44.92166" lon="5.22938">
        <ele>1030.67</ele>
        <time>2017-10-01T14:29:29Z</time>
      </trkpt>
      <trkpt lat="44.92166" lon="5.2294">
        <ele>1030.19</ele>
        <time>2017-10-01T14:29:47Z</time>
      </trkpt>
      <trkpt lat="44.92166" lon="5.2294">
        <ele>1030.67</ele>
        <time>2017-10-01T14:30:13Z</time>
      </trkpt>
      <trkpt lat="44.92166" lon="5.2294">
        <ele>1031.15</ele>
        <time>2017-10-01T14:30:41Z</time>
      </trkpt>
      <trkpt lat="44.92166" lon="5.22941">
        <ele>1031.63</ele>
        <time>2017-10-01T14:31:09Z</time>
      </trkpt>
      <trkpt lat="44.92166" lon="5.22941">
        <ele>1032.11</ele>
        <time>2017-10-01T14:31:26Z</time>
      </trkpt>
      <trkpt lat="44.92167" lon="5.22943">
        <ele>1032.11</ele>
        <time>2017-10-01T14:31:30Z</time>
      </trkpt>
      <trkpt lat="44.92172" lon="5.22961">
        <ele>1031.63</ele>
        <time>2017-10-01T14:31:41Z</time>
      </trkpt>
      <trkpt lat="44.92174" lon="5.22965">
        <ele>1031.63</ele>
        <time>2017-10-01T14:31:47Z</time>
      </trkpt>
      <trkpt lat="44.92181" lon="5.22979">
        <ele>1030.67</ele>
        <time>2017-10-01T14:32:01Z</time>
      </trkpt>
      <trkpt lat="44.92182" lon="5.22987">
        <ele>1029.23</ele>
        <time>2017-10-01T14:32:15Z</time>
      </trkpt>
      <trkpt lat="44.92182" lon="5.22985">
        <ele>1030.67</ele>
        <time>2017-10-01T14:32:18Z</time>
      </trkpt>
      <trkpt lat="44.92184" lon="5.22979">
        <ele>1029.23</ele>
        <time>2017-10-01T14:32:28Z</time>
      </trkpt>
      <trkpt lat="44.92184" lon="5.22975">
        <ele>1027.79</ele>
        <time>2017-10-01T14:32:39Z</time>
      </trkpt>
      <trkpt lat="44.92184" lon="5.22973">
        <ele>1027.31</ele>
        <time>2017-10-01T14:32:52Z</time>
      </trkpt>
      <trkpt lat="44.92184" lon="5.22961">
        <ele>1027.31</ele>
        <time>2017-10-01T14:33:02Z</time>
      </trkpt>
      <trkpt lat="44.9219" lon="5.22958">
        <ele>1026.83</ele>
        <time>2017-10-01T14:33:15Z</time>
      </trkpt>
      <trkpt lat="44.92198" lon="5.22953">
        <ele>1026.83</ele>
        <time>2017-10-01T14:33:28Z</time>
      </trkpt>
      <trkpt lat="44.92198" lon="5.2295">
        <ele>1026.34</ele>
        <time>2017-10-01T14:33:49Z</time>
      </trkpt>
      <trkpt lat="44.922" lon="5.2294">
        <ele>1024.9</ele>
        <time>2017-10-01T14:34:01Z</time>
      </trkpt>
      <trkpt lat="44.92205" lon="5.22927">
        <ele>1024.42</ele>
        <time>2017-10-01T14:34:13Z</time>
      </trkpt>
      <trkpt lat="44.92209" lon="5.22922">
        <ele>1023.94</ele>
        <time>2017-10-01T14:34:27Z</time>
      </trkpt>
      <trkpt lat="44.92228" lon="5.22913">
        <ele>1022.98</ele>
        <time>2017-10-01T14:34:40Z</time>
      </trkpt>
      <trkpt lat="44.92234" lon="5.2291">
        <ele>1022.5</ele>
        <time>2017-10-01T14:34:55Z</time>
      </trkpt>
      <trkpt lat="44.92237" lon="5.22903">
        <ele>1021.06</ele>
        <time>2017-10-01T14:35:11Z</time>
      </trkpt>
      <trkpt lat="44.92249" lon="5.22903">
        <ele>1021.06</ele>
        <time>2017-10-01T14:35:26Z</time>
      </trkpt>
      <trkpt lat="44.92251" lon="5.22906">
        <ele>1021.06</ele>
        <time>2017-10-01T14:35:44Z</time>
      </trkpt>
      <trkpt lat="44.92253" lon="5.22904">
        <ele>1021.06</ele>
        <time>2017-10-01T14:35:59Z</time>
      </trkpt>
      <trkpt lat="44.92265" lon="5.22907">
        <ele>1020.1</ele>
        <time>2017-10-01T14:36:11Z</time>
      </trkpt>
      <trkpt lat="44.92269" lon="5.22905">
        <ele>1020.1</ele>
        <time>2017-10-01T14:36:23Z</time>
      </trkpt>
      <trkpt lat="44.92275" lon="5.2291">
        <ele>1020.1</ele>
        <time>2017-10-01T14:36:32Z</time>
      </trkpt>
      <trkpt lat="44.92276" lon="5.22916">
        <ele>1018.65</ele>
        <time>2017-10-01T14:36:43Z</time>
      </trkpt>
      <trkpt lat="44.92282" lon="5.22917">
        <ele>1017.69</ele>
        <time>2017-10-01T14:36:53Z</time>
      </trkpt>
      <trkpt lat="44.92285" lon="5.22921">
        <ele>1016.73</ele>
        <time>2017-10-01T14:36:56Z</time>
      </trkpt>
      <trkpt lat="44.92289" lon="5.22925">
        <ele>1015.29</ele>
        <time>2017-10-01T14:37:03Z</time>
      </trkpt>
      <trkpt lat="44.92292" lon="5.22929">
        <ele>1014.81</ele>
        <time>2017-10-01T14:37:06Z</time>
      </trkpt>
      <trkpt lat="44.92299" lon="5.22944">
        <ele>1013.85</ele>
        <time>2017-10-01T14:37:15Z</time>
      </trkpt>
      <trkpt lat="44.92301" lon="5.22951">
        <ele>1013.37</ele>
        <time>2017-10-01T14:37:19Z</time>
      </trkpt>
      <trkpt lat="44.92304" lon="5.22956">
        <ele>1013.37</ele>
        <time>2017-10-01T14:37:22Z</time>
      </trkpt>
      <trkpt lat="44.92309" lon="5.22981">
        <ele>1012.41</ele>
        <time>2017-10-01T14:37:36Z</time>
      </trkpt>
      <trkpt lat="44.92318" lon="5.22989">
        <ele>1012.41</ele>
        <time>2017-10-01T14:37:47Z</time>
      </trkpt>
      <trkpt lat="44.92323" lon="5.22999">
        <ele>1011.44</ele>
        <time>2017-10-01T14:37:57Z</time>
      </trkpt>
      <trkpt lat="44.92327" lon="5.23003">
        <ele>1011.44</ele>
        <time>2017-10-01T14:38:02Z</time>
      </trkpt>
      <trkpt lat="44.92331" lon="5.23015">
        <ele>1011.44</ele>
        <time>2017-10-01T14:38:08Z</time>
      </trkpt>
      <trkpt lat="44.92336" lon="5.23027">
        <ele>1011.44</ele>
        <time>2017-10-01T14:38:14Z</time>
      </trkpt>
      <trkpt lat="44.92338" lon="5.23032">
        <ele>1011.44</ele>
        <time>2017-10-01T14:38:16Z</time>
      </trkpt>
      <trkpt lat="44.92344" lon="5.23051">
        <ele>1011.44</ele>
        <time>2017-10-01T14:38:24Z</time>
      </trkpt>
      <trkpt lat="44.92346" lon="5.23055">
        <ele>1011.44</ele>
        <time>2017-10-01T14:38:26Z</time>
      </trkpt>
      <trkpt lat="44.92347" lon="5.2306">
        <ele>1012.41</ele>
        <time>2017-10-01T14:38:30Z</time>
      </trkpt>
      <trkpt lat="44.92354" lon="5.2308">
        <ele>1013.37</ele>
        <time>2017-10-01T14:38:40Z</time>
      </trkpt>
      <trkpt lat="44.92359" lon="5.2309">
        <ele>1013.37</ele>
        <time>2017-10-01T14:38:48Z</time>
      </trkpt>
      <trkpt lat="44.92365" lon="5.231">
        <ele>1014.81</ele>
        <time>2017-10-01T14:38:58Z</time>
      </trkpt>
      <trkpt lat="44.92367" lon="5.23104">
        <ele>1015.29</ele>
        <time>2017-10-01T14:39:08Z</time>
      </trkpt>
      <trkpt lat="44.9237" lon="5.23108">
        <ele>1015.77</ele>
        <time>2017-10-01T14:39:11Z</time>
      </trkpt>
      <trkpt lat="44.92372" lon="5.23114">
        <ele>1015.29</ele>
        <time>2017-10-01T14:39:18Z</time>
      </trkpt>
      <trkpt lat="44.92379" lon="5.23129">
        <ele>1015.77</ele>
        <time>2017-10-01T14:39:26Z</time>
      </trkpt>
      <trkpt lat="44.92384" lon="5.23137">
        <ele>1016.25</ele>
        <time>2017-10-01T14:39:33Z</time>
      </trkpt>
      <trkpt lat="44.92393" lon="5.23143">
        <ele>1015.77</ele>
        <time>2017-10-01T14:39:44Z</time>
      </trkpt>
      <trkpt lat="44.92395" lon="5.23146">
        <ele>1016.25</ele>
        <time>2017-10-01T14:39:47Z</time>
      </trkpt>
      <trkpt lat="44.92404" lon="5.23168">
        <ele>1016.73</ele>
        <time>2017-10-01T14:39:58Z</time>
      </trkpt>
      <trkpt lat="44.92405" lon="5.23171">
        <ele>1016.25</ele>
        <time>2017-10-01T14:40:00Z</time>
      </trkpt>
      <trkpt lat="44.92406" lon="5.23187">
        <ele>1016.73</ele>
        <time>2017-10-01T14:40:07Z</time>
      </trkpt>
      <trkpt lat="44.92404" lon="5.232">
        <ele>1017.21</ele>
        <time>2017-10-01T14:40:18Z</time>
      </trkpt>
      <trkpt lat="44.92404" lon="5.23211">
        <ele>1017.21</ele>
        <time>2017-10-01T14:40:23Z</time>
      </trkpt>
      <trkpt lat="44.92403" lon="5.23232">
        <ele>1017.21</ele>
        <time>2017-10-01T14:40:34Z</time>
      </trkpt>
      <trkpt lat="44.92403" lon="5.23235">
        <ele>1017.69</ele>
        <time>2017-10-01T14:40:36Z</time>
      </trkpt>
      <trkpt lat="44.92401" lon="5.2325">
        <ele>1018.17</ele>
        <time>2017-10-01T14:40:46Z</time>
      </trkpt>
      <trkpt lat="44.924" lon="5.2325">
        <ele>1017.69</ele>
        <time>2017-10-01T14:40:47Z</time>
      </trkpt>
      <trkpt lat="44.92395" lon="5.23251">
        <ele>1018.17</ele>
        <time>2017-10-01T14:40:52Z</time>
      </trkpt>
      <trkpt lat="44.92391" lon="5.23252">
        <ele>1018.17</ele>
        <time>2017-10-01T14:40:59Z</time>
      </trkpt>
      <trkpt lat="44.92391" lon="5.23252">
        <ele>1018.65</ele>
        <time>2017-10-01T14:41:13Z</time>
      </trkpt>
      <trkpt lat="44.92392" lon="5.23254">
        <ele>1018.65</ele>
        <time>2017-10-01T14:41:26Z</time>
      </trkpt>
      <trkpt lat="44.92394" lon="5.23257">
        <ele>1018.65</ele>
        <time>2017-10-01T14:41:33Z</time>
      </trkpt>
      <trkpt lat="44.92399" lon="5.2326">
        <ele>1019.13</ele>
        <time>2017-10-01T14:41:46Z</time>
      </trkpt>
      <trkpt lat="44.92399" lon="5.2326">
        <ele>1019.13</ele>
        <time>2017-10-01T14:41:48Z</time>
      </trkpt>
      <trkpt lat="44.92407" lon="5.23267">
        <ele>1017.69</ele>
        <time>2017-10-01T14:41:56Z</time>
      </trkpt>
      <trkpt lat="44.92413" lon="5.23285">
        <ele>1017.21</ele>
        <time>2017-10-01T14:42:06Z</time>
      </trkpt>
      <trkpt lat="44.92413" lon="5.23287">
        <ele>1016.73</ele>
        <time>2017-10-01T14:42:08Z</time>
      </trkpt>
      <trkpt lat="44.92415" lon="5.23298">
        <ele>1016.73</ele>
        <time>2017-10-01T14:42:13Z</time>
      </trkpt>
      <trkpt lat="44.92417" lon="5.23308">
        <ele>1016.25</ele>
        <time>2017-10-01T14:42:19Z</time>
      </trkpt>
      <trkpt lat="44.92418" lon="5.23313">
        <ele>1016.25</ele>
        <time>2017-10-01T14:42:22Z</time>
      </trkpt>
      <trkpt lat="44.92422" lon="5.23325">
        <ele>1015.77</ele>
        <time>2017-10-01T14:42:30Z</time>
      </trkpt>
      <trkpt lat="44.92425" lon="5.23335">
        <ele>1014.81</ele>
        <time>2017-10-01T14:42:35Z</time>
      </trkpt>
      <trkpt lat="44.92433" lon="5.23349">
        <ele>1012.89</ele>
        <time>2017-10-01T14:42:46Z</time>
      </trkpt>
      <trkpt lat="44.92436" lon="5.23355">
        <ele>1012.89</ele>
        <time>2017-10-01T14:42:50Z</time>
      </trkpt>
      <trkpt lat="44.92443" lon="5.23371">
        <ele>1010.48</ele>
        <time>2017-10-01T14:43:02Z</time>
      </trkpt>
      <trkpt lat="44.92447" lon="5.23379">
        <ele>1010</ele>
        <time>2017-10-01T14:43:08Z</time>
      </trkpt>
      <trkpt lat="44.92453" lon="5.23389">
        <ele>1008.56</ele>
        <time>2017-10-01T14:43:16Z</time>
      </trkpt>
      <trkpt lat="44.92453" lon="5.23404">
        <ele>1007.12</ele>
        <time>2017-10-01T14:43:26Z</time>
      </trkpt>
      <trkpt lat="44.92457" lon="5.23426">
        <ele>1005.68</ele>
        <time>2017-10-01T14:43:38Z</time>
      </trkpt>
      <trkpt lat="44.92463" lon="5.23435">
        <ele>1004.23</ele>
        <time>2017-10-01T14:43:46Z</time>
      </trkpt>
      <trkpt lat="44.92475" lon="5.2345">
        <ele>1001.35</ele>
        <time>2017-10-01T14:43:57Z</time>
      </trkpt>
      <trkpt lat="44.92476" lon="5.23451">
        <ele>1001.35</ele>
        <time>2017-10-01T14:43:59Z</time>
      </trkpt>
      <trkpt lat="44.92478" lon="5.23455">
        <ele>1000.87</ele>
        <time>2017-10-01T14:44:02Z</time>
      </trkpt>
      <trkpt lat="44.92488" lon="5.23466">
        <ele>998.95</ele>
        <time>2017-10-01T14:44:13Z</time>
      </trkpt>
      <trkpt lat="44.92488" lon="5.23466">
        <ele>998.95</ele>
        <time>2017-10-01T14:44:14Z</time>
      </trkpt>
      <trkpt lat="44.92491" lon="5.23471">
        <ele>998.47</ele>
        <time>2017-10-01T14:44:17Z</time>
      </trkpt>
      <trkpt lat="44.92498" lon="5.23482">
        <ele>997.51</ele>
        <time>2017-10-01T14:44:25Z</time>
      </trkpt>
      <trkpt lat="44.92507" lon="5.23489">
        <ele>996.06</ele>
        <time>2017-10-01T14:44:32Z</time>
      </trkpt>
      <trkpt lat="44.92511" lon="5.23495">
        <ele>995.1</ele>
        <time>2017-10-01T14:44:43Z</time>
      </trkpt>
      <trkpt lat="44.92511" lon="5.23495">
        <ele>997.02</ele>
        <time>2017-10-01T14:44:59Z</time>
      </trkpt>
      <trkpt lat="44.92508" lon="5.23486">
        <ele>994.62</ele>
        <time>2017-10-01T14:45:09Z</time>
      </trkpt>
      <trkpt lat="44.92508" lon="5.23486">
        <ele>995.58</ele>
        <time>2017-10-01T14:45:14Z</time>
      </trkpt>
      <trkpt lat="44.92513" lon="5.235">
        <ele>995.58</ele>
        <time>2017-10-01T14:45:23Z</time>
      </trkpt>
      <trkpt lat="44.92514" lon="5.23501">
        <ele>995.58</ele>
        <time>2017-10-01T14:45:25Z</time>
      </trkpt>
      <trkpt lat="44.92519" lon="5.23506">
        <ele>994.62</ele>
        <time>2017-10-01T14:45:32Z</time>
      </trkpt>
      <trkpt lat="44.92524" lon="5.23514">
        <ele>994.14</ele>
        <time>2017-10-01T14:45:37Z</time>
      </trkpt>
      <trkpt lat="44.92526" lon="5.23523">
        <ele>993.18</ele>
        <time>2017-10-01T14:45:43Z</time>
      </trkpt>
      <trkpt lat="44.92533" lon="5.23532">
        <ele>992.22</ele>
        <time>2017-10-01T14:45:51Z</time>
      </trkpt>
      <trkpt lat="44.92539" lon="5.23538">
        <ele>990.78</ele>
        <time>2017-10-01T14:45:58Z</time>
      </trkpt>
      <trkpt lat="44.92541" lon="5.23541">
        <ele>991.26</ele>
        <time>2017-10-01T14:46:00Z</time>
      </trkpt>
      <trkpt lat="44.92545" lon="5.23547">
        <ele>990.78</ele>
        <time>2017-10-01T14:46:06Z</time>
      </trkpt>
      <trkpt lat="44.92549" lon="5.23551">
        <ele>989.81</ele>
        <time>2017-10-01T14:46:10Z</time>
      </trkpt>
      <trkpt lat="44.92556" lon="5.23559">
        <ele>989.33</ele>
        <time>2017-10-01T14:46:18Z</time>
      </trkpt>
      <trkpt lat="44.92565" lon="5.23572">
        <ele>988.37</ele>
        <time>2017-10-01T14:46:28Z</time>
      </trkpt>
      <trkpt lat="44.92565" lon="5.23572">
        <ele>985.49</ele>
        <time>2017-10-01T14:46:30Z</time>
      </trkpt>
      <trkpt lat="44.92565" lon="5.23572">
        <ele>990.78</ele>
        <time>2017-10-01T14:46:31Z</time>
      </trkpt>
      <trkpt lat="44.92565" lon="5.23572">
        <ele>977.32</ele>
        <time>2017-10-01T14:46:32Z</time>
      </trkpt>
      <trkpt lat="44.92565" lon="5.23572">
        <ele>997.02</ele>
        <time>2017-10-01T14:46:33Z</time>
      </trkpt>
      <trkpt lat="44.92577" lon="5.23587">
        <ele>986.93</ele>
        <time>2017-10-01T14:46:47Z</time>
      </trkpt>
      <trkpt lat="44.92577" lon="5.23587">
        <ele>980.2</ele>
        <time>2017-10-01T14:46:51Z</time>
      </trkpt>
      <trkpt lat="44.92577" lon="5.23587">
        <ele>993.66</ele>
        <time>2017-10-01T14:46:52Z</time>
      </trkpt>
      <trkpt lat="44.92577" lon="5.23587">
        <ele>985.49</ele>
        <time>2017-10-01T14:46:53Z</time>
      </trkpt>
      <trkpt lat="44.92577" lon="5.23587">
        <ele>989.81</ele>
        <time>2017-10-01T14:46:59Z</time>
      </trkpt>
      <trkpt lat="44.92577" lon="5.23587">
        <ele>985.49</ele>
        <time>2017-10-01T14:47:00Z</time>
      </trkpt>
      <trkpt lat="44.92577" lon="5.23587">
        <ele>988.85</ele>
        <time>2017-10-01T14:47:01Z</time>
      </trkpt>
      <trkpt lat="44.92578" lon="5.23585">
        <ele>986.93</ele>
        <time>2017-10-01T14:47:07Z</time>
      </trkpt>
      <trkpt lat="44.92581" lon="5.23575">
        <ele>985.01</ele>
        <time>2017-10-01T14:47:16Z</time>
      </trkpt>
      <trkpt lat="44.92582" lon="5.23569">
        <ele>985.01</ele>
        <time>2017-10-01T14:47:19Z</time>
      </trkpt>
      <trkpt lat="44.92581" lon="5.23556">
        <ele>984.53</ele>
        <time>2017-10-01T14:47:29Z</time>
      </trkpt>
      <trkpt lat="44.92582" lon="5.23559">
        <ele>984.53</ele>
        <time>2017-10-01T14:47:40Z</time>
      </trkpt>
      <trkpt lat="44.92582" lon="5.23559">
        <ele>984.53</ele>
        <time>2017-10-01T14:47:55Z</time>
      </trkpt>
      <trkpt lat="44.92585" lon="5.23563">
        <ele>984.05</ele>
        <time>2017-10-01T14:48:00Z</time>
      </trkpt>
      <trkpt lat="44.92591" lon="5.23569">
        <ele>984.05</ele>
        <time>2017-10-01T14:48:06Z</time>
      </trkpt>
      <trkpt lat="44.92592" lon="5.23572">
        <ele>984.05</ele>
        <time>2017-10-01T14:48:08Z</time>
      </trkpt>
      <trkpt lat="44.92594" lon="5.23574">
        <ele>983.57</ele>
        <time>2017-10-01T14:48:10Z</time>
      </trkpt>
      <trkpt lat="44.926" lon="5.23578">
        <ele>983.09</ele>
        <time>2017-10-01T14:48:16Z</time>
      </trkpt>
      <trkpt lat="44.92604" lon="5.23583">
        <ele>983.09</ele>
        <time>2017-10-01T14:48:20Z</time>
      </trkpt>
      <trkpt lat="44.92608" lon="5.23585">
        <ele>982.12</ele>
        <time>2017-10-01T14:48:24Z</time>
      </trkpt>
      <trkpt lat="44.92612" lon="5.23589">
        <ele>982.12</ele>
        <time>2017-10-01T14:48:28Z</time>
      </trkpt>
      <trkpt lat="44.92616" lon="5.23593">
        <ele>981.16</ele>
        <time>2017-10-01T14:48:32Z</time>
      </trkpt>
      <trkpt lat="44.92621" lon="5.23611">
        <ele>980.2</ele>
        <time>2017-10-01T14:48:42Z</time>
      </trkpt>
      <trkpt lat="44.92623" lon="5.23615">
        <ele>980.2</ele>
        <time>2017-10-01T14:48:44Z</time>
      </trkpt>
      <trkpt lat="44.92626" lon="5.2362">
        <ele>979.72</ele>
        <time>2017-10-01T14:48:48Z</time>
      </trkpt>
      <trkpt lat="44.92627" lon="5.23624">
        <ele>979.24</ele>
        <time>2017-10-01T14:48:51Z</time>
      </trkpt>
      <trkpt lat="44.92629" lon="5.23626">
        <ele>979.24</ele>
        <time>2017-10-01T14:49:00Z</time>
      </trkpt>
      <trkpt lat="44.92626" lon="5.23622">
        <ele>979.72</ele>
        <time>2017-10-01T14:49:09Z</time>
      </trkpt>
      <trkpt lat="44.92627" lon="5.23625">
        <ele>979.72</ele>
        <time>2017-10-01T14:49:11Z</time>
      </trkpt>
      <trkpt lat="44.92631" lon="5.23632">
        <ele>978.76</ele>
        <time>2017-10-01T14:49:16Z</time>
      </trkpt>
      <trkpt lat="44.92637" lon="5.23648">
        <ele>977.32</ele>
        <time>2017-10-01T14:49:27Z</time>
      </trkpt>
      <trkpt lat="44.92637" lon="5.2365">
        <ele>977.32</ele>
        <time>2017-10-01T14:49:28Z</time>
      </trkpt>
      <trkpt lat="44.92641" lon="5.23658">
        <ele>976.84</ele>
        <time>2017-10-01T14:49:33Z</time>
      </trkpt>
      <trkpt lat="44.92643" lon="5.23667">
        <ele>975.88</ele>
        <time>2017-10-01T14:49:39Z</time>
      </trkpt>
      <trkpt lat="44.92651" lon="5.23684">
        <ele>974.91</ele>
        <time>2017-10-01T14:49:50Z</time>
      </trkpt>
      <trkpt lat="44.92653" lon="5.23694">
        <ele>973.95</ele>
        <time>2017-10-01T14:49:56Z</time>
      </trkpt>
      <trkpt lat="44.92653" lon="5.23697">
        <ele>973.95</ele>
        <time>2017-10-01T14:49:58Z</time>
      </trkpt>
      <trkpt lat="44.92657" lon="5.23705">
        <ele>972.99</ele>
        <time>2017-10-01T14:50:04Z</time>
      </trkpt>
      <trkpt lat="44.92659" lon="5.23707">
        <ele>972.03</ele>
        <time>2017-10-01T14:50:10Z</time>
      </trkpt>
      <trkpt lat="44.92661" lon="5.23706">
        <ele>972.51</ele>
        <time>2017-10-01T14:50:21Z</time>
      </trkpt>
      <trkpt lat="44.92662" lon="5.23706">
        <ele>972.03</ele>
        <time>2017-10-01T14:50:30Z</time>
      </trkpt>
      <trkpt lat="44.92664" lon="5.23708">
        <ele>971.55</ele>
        <time>2017-10-01T14:50:33Z</time>
      </trkpt>
      <trkpt lat="44.92672" lon="5.23717">
        <ele>969.15</ele>
        <time>2017-10-01T14:50:45Z</time>
      </trkpt>
      <trkpt lat="44.92672" lon="5.23717">
        <ele>970.11</ele>
        <time>2017-10-01T14:51:03Z</time>
      </trkpt>
      <trkpt lat="44.92671" lon="5.23715">
        <ele>971.55</ele>
        <time>2017-10-01T14:51:06Z</time>
      </trkpt>
      <trkpt lat="44.92663" lon="5.23705">
        <ele>973.47</ele>
        <time>2017-10-01T14:51:15Z</time>
      </trkpt>
      <trkpt lat="44.92662" lon="5.23698">
        <ele>974.43</ele>
        <time>2017-10-01T14:51:18Z</time>
      </trkpt>
      <trkpt lat="44.92655" lon="5.23673">
        <ele>975.88</ele>
        <time>2017-10-01T14:51:29Z</time>
      </trkpt>
      <trkpt lat="44.92657" lon="5.23664">
        <ele>975.88</ele>
        <time>2017-10-01T14:51:37Z</time>
      </trkpt>
      <trkpt lat="44.92658" lon="5.2366">
        <ele>975.88</ele>
        <time>2017-10-01T14:51:52Z</time>
      </trkpt>
      <trkpt lat="44.92658" lon="5.2366">
        <ele>976.36</ele>
        <time>2017-10-01T14:52:14Z</time>
      </trkpt>
      <trkpt lat="44.92658" lon="5.23661">
        <ele>976.84</ele>
        <time>2017-10-01T14:52:42Z</time>
      </trkpt>
      <trkpt lat="44.92658" lon="5.23665">
        <ele>975.88</ele>
        <time>2017-10-01T14:52:49Z</time>
      </trkpt>
      <trkpt lat="44.9265" lon="5.23672">
        <ele>977.8</ele>
        <time>2017-10-01T14:53:01Z</time>
      </trkpt>
      <trkpt lat="44.92648" lon="5.23675">
        <ele>978.28</ele>
        <time>2017-10-01T14:53:13Z</time>
      </trkpt>
      <trkpt lat="44.92646" lon="5.23682">
        <ele>979.24</ele>
        <time>2017-10-01T14:53:20Z</time>
      </trkpt>
      <trkpt lat="44.92651" lon="5.23691">
        <ele>978.28</ele>
        <time>2017-10-01T14:53:31Z</time>
      </trkpt>
      <trkpt lat="44.92652" lon="5.23692">
        <ele>977.8</ele>
        <time>2017-10-01T14:53:35Z</time>
      </trkpt>
      <trkpt lat="44.92658" lon="5.23701">
        <ele>975.88</ele>
        <time>2017-10-01T14:53:46Z</time>
      </trkpt>
      <trkpt lat="44.9266" lon="5.23705">
        <ele>975.39</ele>
        <time>2017-10-01T14:53:58Z</time>
      </trkpt>
      <trkpt lat="44.92661" lon="5.23709">
        <ele>974.91</ele>
        <time>2017-10-01T14:54:10Z</time>
      </trkpt>
      <trkpt lat="44.92665" lon="5.23716">
        <ele>973.95</ele>
        <time>2017-10-01T14:54:17Z</time>
      </trkpt>
      <trkpt lat="44.92673" lon="5.23726">
        <ele>971.55</ele>
        <time>2017-10-01T14:54:30Z</time>
      </trkpt>
      <trkpt lat="44.92674" lon="5.23728">
        <ele>971.07</ele>
        <time>2017-10-01T14:54:32Z</time>
      </trkpt>
      <trkpt lat="44.92678" lon="5.23731">
        <ele>970.59</ele>
        <time>2017-10-01T14:54:39Z</time>
      </trkpt>
      <trkpt lat="44.92681" lon="5.23742">
        <ele>970.11</ele>
        <time>2017-10-01T14:54:48Z</time>
      </trkpt>
      <trkpt lat="44.92681" lon="5.23745">
        <ele>969.63</ele>
        <time>2017-10-01T14:54:50Z</time>
      </trkpt>
      <trkpt lat="44.92683" lon="5.2375">
        <ele>968.67</ele>
        <time>2017-10-01T14:54:54Z</time>
      </trkpt>
      <trkpt lat="44.92686" lon="5.23757">
        <ele>967.22</ele>
        <time>2017-10-01T14:55:01Z</time>
      </trkpt>
      <trkpt lat="44.92689" lon="5.23769">
        <ele>965.78</ele>
        <time>2017-10-01T14:55:12Z</time>
      </trkpt>
      <trkpt lat="44.92689" lon="5.23773">
        <ele>965.3</ele>
        <time>2017-10-01T14:55:15Z</time>
      </trkpt>
      <trkpt lat="44.92689" lon="5.2378">
        <ele>964.82</ele>
        <time>2017-10-01T14:55:19Z</time>
      </trkpt>
      <trkpt lat="44.92692" lon="5.23787">
        <ele>963.86</ele>
        <time>2017-10-01T14:55:32Z</time>
      </trkpt>
      <trkpt lat="44.92692" lon="5.23787">
        <ele>963.86</ele>
        <time>2017-10-01T14:55:33Z</time>
      </trkpt>
      <trkpt lat="44.92695" lon="5.23789">
        <ele>963.38</ele>
        <time>2017-10-01T14:55:37Z</time>
      </trkpt>
      <trkpt lat="44.92695" lon="5.23793">
        <ele>963.38</ele>
        <time>2017-10-01T14:55:40Z</time>
      </trkpt>
      <trkpt lat="44.927" lon="5.238">
        <ele>961.94</ele>
        <time>2017-10-01T14:55:51Z</time>
      </trkpt>
      <trkpt lat="44.927" lon="5.238">
        <ele>961.46</ele>
        <time>2017-10-01T14:55:53Z</time>
      </trkpt>
      <trkpt lat="44.92704" lon="5.23801">
        <ele>960.98</ele>
        <time>2017-10-01T14:55:58Z</time>
      </trkpt>
      <trkpt lat="44.92711" lon="5.23799">
        <ele>960.01</ele>
        <time>2017-10-01T14:56:08Z</time>
      </trkpt>
      <trkpt lat="44.92716" lon="5.23795">
        <ele>959.05</ele>
        <time>2017-10-01T14:56:13Z</time>
      </trkpt>
      <trkpt lat="44.92726" lon="5.23788">
        <ele>957.61</ele>
        <time>2017-10-01T14:56:22Z</time>
      </trkpt>
      <trkpt lat="44.92729" lon="5.23784">
        <ele>957.13</ele>
        <time>2017-10-01T14:56:27Z</time>
      </trkpt>
      <trkpt lat="44.92733" lon="5.23782">
        <ele>956.65</ele>
        <time>2017-10-01T14:56:31Z</time>
      </trkpt>
      <trkpt lat="44.92735" lon="5.23785">
        <ele>955.69</ele>
        <time>2017-10-01T14:56:34Z</time>
      </trkpt>
      <trkpt lat="44.92739" lon="5.23789">
        <ele>952.32</ele>
        <time>2017-10-01T14:56:42Z</time>
      </trkpt>
      <trkpt lat="44.92739" lon="5.23789">
        <ele>955.21</ele>
        <time>2017-10-01T14:56:48Z</time>
      </trkpt>
      <trkpt lat="44.9274" lon="5.23791">
        <ele>954.73</ele>
        <time>2017-10-01T14:57:03Z</time>
      </trkpt>
      <trkpt lat="44.92745" lon="5.23797">
        <ele>953.28</ele>
        <time>2017-10-01T14:57:12Z</time>
      </trkpt>
      <trkpt lat="44.92747" lon="5.23806">
        <ele>951.84</ele>
        <time>2017-10-01T14:57:18Z</time>
      </trkpt>
      <trkpt lat="44.92756" lon="5.23807">
        <ele>950.4</ele>
        <time>2017-10-01T14:57:24Z</time>
      </trkpt>
      <trkpt lat="44.92766" lon="5.23805">
        <ele>948.48</ele>
        <time>2017-10-01T14:57:32Z</time>
      </trkpt>
      <trkpt lat="44.92774" lon="5.23813">
        <ele>947.04</ele>
        <time>2017-10-01T14:57:39Z</time>
      </trkpt>
      <trkpt lat="44.9279" lon="5.23814">
        <ele>945.11</ele>
        <time>2017-10-01T14:57:51Z</time>
      </trkpt>
      <trkpt lat="44.92792" lon="5.23813">
        <ele>945.11</ele>
        <time>2017-10-01T14:57:53Z</time>
      </trkpt>
      <trkpt lat="44.92804" lon="5.23811">
        <ele>943.19</ele>
        <time>2017-10-01T14:58:03Z</time>
      </trkpt>
      <trkpt lat="44.92807" lon="5.23811">
        <ele>942.71</ele>
        <time>2017-10-01T14:58:06Z</time>
      </trkpt>
      <trkpt lat="44.92811" lon="5.23815">
        <ele>941.75</ele>
        <time>2017-10-01T14:58:12Z</time>
      </trkpt>
      <trkpt lat="44.92816" lon="5.23822">
        <ele>940.79</ele>
        <time>2017-10-01T14:58:19Z</time>
      </trkpt>
      <trkpt lat="44.92821" lon="5.23826">
        <ele>940.31</ele>
        <time>2017-10-01T14:58:23Z</time>
      </trkpt>
      <trkpt lat="44.92827" lon="5.23829">
        <ele>938.86</ele>
        <time>2017-10-01T14:58:34Z</time>
      </trkpt>
      <trkpt lat="44.92833" lon="5.23827">
        <ele>936.94</ele>
        <time>2017-10-01T14:58:41Z</time>
      </trkpt>
      <trkpt lat="44.92838" lon="5.23823">
        <ele>933.58</ele>
        <time>2017-10-01T14:58:51Z</time>
      </trkpt>
      <trkpt lat="44.92838" lon="5.23823">
        <ele>939.35</ele>
        <time>2017-10-01T14:58:52Z</time>
      </trkpt>
      <trkpt lat="44.92838" lon="5.23822">
        <ele>935.98</ele>
        <time>2017-10-01T14:58:54Z</time>
      </trkpt>
      <trkpt lat="44.92839" lon="5.23824">
        <ele>935.98</ele>
        <time>2017-10-01T14:58:58Z</time>
      </trkpt>
      <trkpt lat="44.92842" lon="5.23842">
        <ele>935.5</ele>
        <time>2017-10-01T14:59:09Z</time>
      </trkpt>
      <trkpt lat="44.92843" lon="5.23858">
        <ele>935.02</ele>
        <time>2017-10-01T14:59:16Z</time>
      </trkpt>
      <trkpt lat="44.92847" lon="5.23855">
        <ele>935.02</ele>
        <time>2017-10-01T14:59:20Z</time>
      </trkpt>
      <trkpt lat="44.92848" lon="5.23846">
        <ele>934.54</ele>
        <time>2017-10-01T14:59:25Z</time>
      </trkpt>
      <trkpt lat="44.92849" lon="5.23842">
        <ele>934.06</ele>
        <time>2017-10-01T14:59:27Z</time>
      </trkpt>
      <trkpt lat="44.9285" lon="5.23823">
        <ele>933.58</ele>
        <time>2017-10-01T14:59:37Z</time>
      </trkpt>
      <trkpt lat="44.92851" lon="5.23821">
        <ele>933.58</ele>
        <time>2017-10-01T14:59:39Z</time>
      </trkpt>
      <trkpt lat="44.92852" lon="5.23815">
        <ele>933.58</ele>
        <time>2017-10-01T14:59:50Z</time>
      </trkpt>
      <trkpt lat="44.92852" lon="5.23815">
        <ele>933.1</ele>
        <time>2017-10-01T15:00:00Z</time>
      </trkpt>
      <trkpt lat="44.92857" lon="5.23785">
        <ele>932.62</ele>
        <time>2017-10-01T15:00:14Z</time>
      </trkpt>
      <trkpt lat="44.9286" lon="5.23776">
        <ele>932.14</ele>
        <time>2017-10-01T15:00:20Z</time>
      </trkpt>
      <trkpt lat="44.92868" lon="5.23751">
        <ele>932.14</ele>
        <time>2017-10-01T15:00:32Z</time>
      </trkpt>
      <trkpt lat="44.92869" lon="5.23747">
        <ele>932.14</ele>
        <time>2017-10-01T15:00:36Z</time>
      </trkpt>
      <trkpt lat="44.92868" lon="5.23732">
        <ele>931.65</ele>
        <time>2017-10-01T15:00:44Z</time>
      </trkpt>
      <trkpt lat="44.92864" lon="5.23719">
        <ele>931.17</ele>
        <time>2017-10-01T15:00:53Z</time>
      </trkpt>
      <trkpt lat="44.92862" lon="5.23709">
        <ele>931.65</ele>
        <time>2017-10-01T15:00:59Z</time>
      </trkpt>
      <trkpt lat="44.92861" lon="5.23705">
        <ele>928.77</ele>
        <time>2017-10-01T15:01:01Z</time>
      </trkpt>
      <trkpt lat="44.92856" lon="5.23693">
        <ele>929.73</ele>
        <time>2017-10-01T15:01:10Z</time>
      </trkpt>
      <trkpt lat="44.92853" lon="5.23683">
        <ele>930.21</ele>
        <time>2017-10-01T15:01:15Z</time>
      </trkpt>
      <trkpt lat="44.92845" lon="5.23661">
        <ele>929.73</ele>
        <time>2017-10-01T15:01:27Z</time>
      </trkpt>
      <trkpt lat="44.92844" lon="5.23653">
        <ele>930.21</ele>
        <time>2017-10-01T15:01:30Z</time>
      </trkpt>
      <trkpt lat="44.92841" lon="5.23643">
        <ele>929.73</ele>
        <time>2017-10-01T15:01:34Z</time>
      </trkpt>
      <trkpt lat="44.9284" lon="5.23638">
        <ele>929.73</ele>
        <time>2017-10-01T15:01:36Z</time>
      </trkpt>
      <trkpt lat="44.9284" lon="5.23631">
        <ele>929.25</ele>
        <time>2017-10-01T15:01:40Z</time>
      </trkpt>
      <trkpt lat="44.92841" lon="5.23623">
        <ele>929.25</ele>
        <time>2017-10-01T15:01:44Z</time>
      </trkpt>
      <trkpt lat="44.92835" lon="5.23606">
        <ele>928.77</ele>
        <time>2017-10-01T15:01:53Z</time>
      </trkpt>
      <trkpt lat="44.92835" lon="5.23604">
        <ele>928.77</ele>
        <time>2017-10-01T15:01:55Z</time>
      </trkpt>
      <trkpt lat="44.92837" lon="5.2359">
        <ele>927.81</ele>
        <time>2017-10-01T15:02:02Z</time>
      </trkpt>
      <trkpt lat="44.92835" lon="5.23568">
        <ele>928.29</ele>
        <time>2017-10-01T15:02:14Z</time>
      </trkpt>
      <trkpt lat="44.92833" lon="5.23566">
        <ele>927.81</ele>
        <time>2017-10-01T15:02:15Z</time>
      </trkpt>
      <trkpt lat="44.9283" lon="5.23558">
        <ele>927.81</ele>
        <time>2017-10-01T15:02:19Z</time>
      </trkpt>
      <trkpt lat="44.92823" lon="5.23548">
        <ele>927.33</ele>
        <time>2017-10-01T15:02:26Z</time>
      </trkpt>
      <trkpt lat="44.92822" lon="5.23545">
        <ele>927.81</ele>
        <time>2017-10-01T15:02:28Z</time>
      </trkpt>
      <trkpt lat="44.92819" lon="5.23536">
        <ele>927.33</ele>
        <time>2017-10-01T15:02:32Z</time>
      </trkpt>
      <trkpt lat="44.92818" lon="5.23529">
        <ele>926.85</ele>
        <time>2017-10-01T15:02:41Z</time>
      </trkpt>
      <trkpt lat="44.92822" lon="5.23529">
        <ele>926.37</ele>
        <time>2017-10-01T15:02:46Z</time>
      </trkpt>
      <trkpt lat="44.92825" lon="5.23529">
        <ele>943.19</ele>
        <time>2017-10-01T15:02:48Z</time>
      </trkpt>
      <trkpt lat="44.92826" lon="5.23529">
        <ele>928.29</ele>
        <time>2017-10-01T15:02:49Z</time>
      </trkpt>
      <trkpt lat="44.92831" lon="5.2353">
        <ele>927.81</ele>
        <time>2017-10-01T15:03:00Z</time>
      </trkpt>
      <trkpt lat="44.92845" lon="5.23545">
        <ele>928.77</ele>
        <time>2017-10-01T15:03:13Z</time>
      </trkpt>
      <trkpt lat="44.92868" lon="5.23547">
        <ele>929.25</ele>
        <time>2017-10-01T15:03:23Z</time>
      </trkpt>
      <trkpt lat="44.92886" lon="5.23549">
        <ele>930.21</ele>
        <time>2017-10-01T15:03:32Z</time>
      </trkpt>
      <trkpt lat="44.92897" lon="5.23555">
        <ele>931.17</ele>
        <time>2017-10-01T15:03:42Z</time>
      </trkpt>
      <trkpt lat="44.92898" lon="5.23556">
        <ele>931.17</ele>
        <time>2017-10-01T15:03:43Z</time>
      </trkpt>
      <trkpt lat="44.92905" lon="5.23556">
        <ele>931.65</ele>
        <time>2017-10-01T15:03:52Z</time>
      </trkpt>
      <trkpt lat="44.9291" lon="5.23556">
        <ele>931.65</ele>
        <time>2017-10-01T15:03:55Z</time>
      </trkpt>
      <trkpt lat="44.92918" lon="5.23559">
        <ele>932.62</ele>
        <time>2017-10-01T15:04:00Z</time>
      </trkpt>
      <trkpt lat="44.92924" lon="5.23561">
        <ele>932.62</ele>
        <time>2017-10-01T15:04:04Z</time>
      </trkpt>
      <trkpt lat="44.92939" lon="5.23562">
        <ele>933.58</ele>
        <time>2017-10-01T15:04:13Z</time>
      </trkpt>
      <trkpt lat="44.92943" lon="5.23564">
        <ele>933.58</ele>
        <time>2017-10-01T15:04:17Z</time>
      </trkpt>
      <trkpt lat="44.92956" lon="5.23564">
        <ele>934.54</ele>
        <time>2017-10-01T15:04:31Z</time>
      </trkpt>
      <trkpt lat="44.92959" lon="5.23565">
        <ele>935.02</ele>
        <time>2017-10-01T15:04:35Z</time>
      </trkpt>
      <trkpt lat="44.92966" lon="5.23566">
        <ele>935.02</ele>
        <time>2017-10-01T15:04:39Z</time>
      </trkpt>
      <trkpt lat="44.92969" lon="5.23566">
        <ele>935.5</ele>
        <time>2017-10-01T15:04:42Z</time>
      </trkpt>
      <trkpt lat="44.92973" lon="5.23565">
        <ele>935.5</ele>
        <time>2017-10-01T15:04:45Z</time>
      </trkpt>
      <trkpt lat="44.9298" lon="5.23566">
        <ele>936.46</ele>
        <time>2017-10-01T15:04:53Z</time>
      </trkpt>
      <trkpt lat="44.92993" lon="5.2357">
        <ele>937.42</ele>
        <time>2017-10-01T15:05:07Z</time>
      </trkpt>
      <trkpt lat="44.93009" lon="5.23577">
        <ele>937.9</ele>
        <time>2017-10-01T15:05:16Z</time>
      </trkpt>
      <trkpt lat="44.93015" lon="5.23577">
        <ele>937.9</ele>
        <time>2017-10-01T15:05:19Z</time>
      </trkpt>
      <trkpt lat="44.93037" lon="5.2357">
        <ele>938.86</ele>
        <time>2017-10-01T15:05:35Z</time>
      </trkpt>
      <trkpt lat="44.93043" lon="5.23567">
        <ele>939.35</ele>
        <time>2017-10-01T15:05:41Z</time>
      </trkpt>
      <trkpt lat="44.93058" lon="5.23564">
        <ele>940.31</ele>
        <time>2017-10-01T15:05:55Z</time>
      </trkpt>
      <trkpt lat="44.93064" lon="5.23565">
        <ele>940.79</ele>
        <time>2017-10-01T15:06:00Z</time>
      </trkpt>
      <trkpt lat="44.93076" lon="5.23573">
        <ele>941.75</ele>
        <time>2017-10-01T15:06:11Z</time>
      </trkpt>
      <trkpt lat="44.93085" lon="5.23583">
        <ele>942.71</ele>
        <time>2017-10-01T15:06:21Z</time>
      </trkpt>
      <trkpt lat="44.93093" lon="5.23589">
        <ele>942.71</ele>
        <time>2017-10-01T15:06:29Z</time>
      </trkpt>
      <trkpt lat="44.93098" lon="5.23592">
        <ele>943.19</ele>
        <time>2017-10-01T15:06:34Z</time>
      </trkpt>
      <trkpt lat="44.93103" lon="5.23597">
        <ele>943.67</ele>
        <time>2017-10-01T15:06:38Z</time>
      </trkpt>
      <trkpt lat="44.93107" lon="5.23598">
        <ele>944.15</ele>
        <time>2017-10-01T15:06:42Z</time>
      </trkpt>
      <trkpt lat="44.93117" lon="5.23602">
        <ele>944.63</ele>
        <time>2017-10-01T15:06:50Z</time>
      </trkpt>
      <trkpt lat="44.93123" lon="5.23604">
        <ele>944.63</ele>
        <time>2017-10-01T15:06:54Z</time>
      </trkpt>
      <trkpt lat="44.93133" lon="5.23608">
        <ele>945.59</ele>
        <time>2017-10-01T15:07:03Z</time>
      </trkpt>
      <trkpt lat="44.9315" lon="5.23609">
        <ele>946.56</ele>
        <time>2017-10-01T15:07:16Z</time>
      </trkpt>
      <trkpt lat="44.93153" lon="5.23609">
        <ele>946.56</ele>
        <time>2017-10-01T15:07:18Z</time>
      </trkpt>
      <trkpt lat="44.93161" lon="5.2361">
        <ele>947.52</ele>
        <time>2017-10-01T15:07:31Z</time>
      </trkpt>
      <trkpt lat="44.93165" lon="5.2361">
        <ele>947.52</ele>
        <time>2017-10-01T15:07:34Z</time>
      </trkpt>
      <trkpt lat="44.93171" lon="5.2361">
        <ele>948.48</ele>
        <time>2017-10-01T15:07:39Z</time>
      </trkpt>
      <trkpt lat="44.93175" lon="5.2361">
        <ele>948.48</ele>
        <time>2017-10-01T15:07:42Z</time>
      </trkpt>
      <trkpt lat="44.93183" lon="5.23611">
        <ele>948.48</ele>
        <time>2017-10-01T15:07:48Z</time>
      </trkpt>
      <trkpt lat="44.9319" lon="5.2361">
        <ele>948.96</ele>
        <time>2017-10-01T15:07:54Z</time>
      </trkpt>
      <trkpt lat="44.93192" lon="5.23612">
        <ele>948.96</ele>
        <time>2017-10-01T15:07:56Z</time>
      </trkpt>
      <trkpt lat="44.93208" lon="5.23612">
        <ele>949.92</ele>
        <time>2017-10-01T15:08:09Z</time>
      </trkpt>
      <trkpt lat="44.93208" lon="5.23612">
        <ele>949.92</ele>
        <time>2017-10-01T15:08:10Z</time>
      </trkpt>
      <trkpt lat="44.9322" lon="5.23613">
        <ele>950.88</ele>
        <time>2017-10-01T15:08:21Z</time>
      </trkpt>
      <trkpt lat="44.93222" lon="5.23613">
        <ele>950.88</ele>
        <time>2017-10-01T15:08:22Z</time>
      </trkpt>
      <trkpt lat="44.93236" lon="5.2361">
        <ele>951.84</ele>
        <time>2017-10-01T15:08:34Z</time>
      </trkpt>
      <trkpt lat="44.93241" lon="5.23609">
        <ele>951.84</ele>
        <time>2017-10-01T15:08:39Z</time>
      </trkpt>
      <trkpt lat="44.93246" lon="5.23608">
        <ele>952.32</ele>
        <time>2017-10-01T15:08:44Z</time>
      </trkpt>
      <trkpt lat="44.93254" lon="5.23607">
        <ele>952.8</ele>
        <time>2017-10-01T15:08:51Z</time>
      </trkpt>
      <trkpt lat="44.93259" lon="5.23607">
        <ele>953.28</ele>
        <time>2017-10-01T15:08:56Z</time>
      </trkpt>
      <trkpt lat="44.93271" lon="5.23606">
        <ele>954.25</ele>
        <time>2017-10-01T15:09:07Z</time>
      </trkpt>
      <trkpt lat="44.93275" lon="5.23605">
        <ele>954.25</ele>
        <time>2017-10-01T15:09:10Z</time>
      </trkpt>
      <trkpt lat="44.9328" lon="5.23604">
        <ele>954.73</ele>
        <time>2017-10-01T15:09:14Z</time>
      </trkpt>
      <trkpt lat="44.93296" lon="5.23605">
        <ele>955.69</ele>
        <time>2017-10-01T15:09:27Z</time>
      </trkpt>
      <trkpt lat="44.93298" lon="5.23604">
        <ele>955.69</ele>
        <time>2017-10-01T15:09:29Z</time>
      </trkpt>
      <trkpt lat="44.93303" lon="5.23603">
        <ele>956.17</ele>
        <time>2017-10-01T15:09:33Z</time>
      </trkpt>
      <trkpt lat="44.93307" lon="5.23602">
        <ele>956.17</ele>
        <time>2017-10-01T15:09:37Z</time>
      </trkpt>
      <trkpt lat="44.93317" lon="5.23601">
        <ele>957.13</ele>
        <time>2017-10-01T15:09:46Z</time>
      </trkpt>
      <trkpt lat="44.93327" lon="5.236">
        <ele>957.61</ele>
        <time>2017-10-01T15:09:54Z</time>
      </trkpt>
      <trkpt lat="44.93333" lon="5.23598">
        <ele>957.61</ele>
        <time>2017-10-01T15:09:59Z</time>
      </trkpt>
      <trkpt lat="44.93336" lon="5.23598">
        <ele>958.09</ele>
        <time>2017-10-01T15:10:02Z</time>
      </trkpt>
      <trkpt lat="44.93342" lon="5.23596">
        <ele>958.57</ele>
        <time>2017-10-01T15:10:07Z</time>
      </trkpt>
      <trkpt lat="44.93346" lon="5.23595">
        <ele>958.57</ele>
        <time>2017-10-01T15:10:10Z</time>
      </trkpt>
      <trkpt lat="44.93353" lon="5.23595">
        <ele>959.05</ele>
        <time>2017-10-01T15:10:15Z</time>
      </trkpt>
      <trkpt lat="44.93362" lon="5.23596">
        <ele>959.53</ele>
        <time>2017-10-01T15:10:22Z</time>
      </trkpt>
      <trkpt lat="44.93365" lon="5.23598">
        <ele>960.01</ele>
        <time>2017-10-01T15:10:25Z</time>
      </trkpt>
      <trkpt lat="44.93371" lon="5.23602">
        <ele>960.49</ele>
        <time>2017-10-01T15:10:30Z</time>
      </trkpt>
      <trkpt lat="44.93381" lon="5.23605">
        <ele>960.49</ele>
        <time>2017-10-01T15:10:38Z</time>
      </trkpt>
      <trkpt lat="44.93383" lon="5.23606">
        <ele>960.98</ele>
        <time>2017-10-01T15:10:40Z</time>
      </trkpt>
      <trkpt lat="44.9339" lon="5.2361">
        <ele>961.46</ele>
        <time>2017-10-01T15:10:46Z</time>
      </trkpt>
      <trkpt lat="44.93409" lon="5.23619">
        <ele>962.42</ele>
        <time>2017-10-01T15:11:00Z</time>
      </trkpt>
      <trkpt lat="44.93424" lon="5.23624">
        <ele>963.38</ele>
        <time>2017-10-01T15:11:12Z</time>
      </trkpt>
      <trkpt lat="44.93429" lon="5.23625">
        <ele>963.38</ele>
        <time>2017-10-01T15:11:16Z</time>
      </trkpt>
      <trkpt lat="44.93433" lon="5.23626">
        <ele>963.86</ele>
        <time>2017-10-01T15:11:19Z</time>
      </trkpt>
      <trkpt lat="44.93449" lon="5.23628">
        <ele>964.82</ele>
        <time>2017-10-01T15:11:31Z</time>
      </trkpt>
      <trkpt lat="44.93463" lon="5.2363">
        <ele>965.78</ele>
        <time>2017-10-01T15:11:43Z</time>
      </trkpt>
      <trkpt lat="44.93471" lon="5.23632">
        <ele>966.26</ele>
        <time>2017-10-01T15:11:49Z</time>
      </trkpt>
      <trkpt lat="44.93477" lon="5.23634">
        <ele>966.74</ele>
        <time>2017-10-01T15:11:54Z</time>
      </trkpt>
      <trkpt lat="44.93491" lon="5.23638">
        <ele>968.18</ele>
        <time>2017-10-01T15:12:06Z</time>
      </trkpt>
      <trkpt lat="44.93494" lon="5.23639">
        <ele>967.7</ele>
        <time>2017-10-01T15:12:08Z</time>
      </trkpt>
      <trkpt lat="44.93496" lon="5.23639">
        <ele>968.18</ele>
        <time>2017-10-01T15:12:10Z</time>
      </trkpt>
      <trkpt lat="44.93504" lon="5.23639">
        <ele>968.67</ele>
        <time>2017-10-01T15:12:17Z</time>
      </trkpt>
      <trkpt lat="44.93514" lon="5.2364">
        <ele>969.63</ele>
        <time>2017-10-01T15:12:25Z</time>
      </trkpt>
      <trkpt lat="44.9353" lon="5.23627">
        <ele>970.11</ele>
        <time>2017-10-01T15:12:38Z</time>
      </trkpt>
      <trkpt lat="44.93541" lon="5.23614">
        <ele>971.07</ele>
        <time>2017-10-01T15:12:50Z</time>
      </trkpt>
      <trkpt lat="44.93547" lon="5.23603">
        <ele>972.03</ele>
        <time>2017-10-01T15:13:00Z</time>
      </trkpt>
      <trkpt lat="44.93557" lon="5.23591">
        <ele>972.51</ele>
        <time>2017-10-01T15:13:10Z</time>
      </trkpt>
      <trkpt lat="44.93567" lon="5.23585">
        <ele>972.99</ele>
        <time>2017-10-01T15:13:17Z</time>
      </trkpt>
      <trkpt lat="44.93571" lon="5.23585">
        <ele>973.47</ele>
        <time>2017-10-01T15:13:20Z</time>
      </trkpt>
      <trkpt lat="44.93581" lon="5.23586">
        <ele>973.95</ele>
        <time>2017-10-01T15:13:28Z</time>
      </trkpt>
      <trkpt lat="44.93587" lon="5.23589">
        <ele>974.43</ele>
        <time>2017-10-01T15:13:32Z</time>
      </trkpt>
      <trkpt lat="44.93599" lon="5.23604">
        <ele>974.91</ele>
        <time>2017-10-01T15:13:44Z</time>
      </trkpt>
      <trkpt lat="44.936" lon="5.23605">
        <ele>975.39</ele>
        <time>2017-10-01T15:13:46Z</time>
      </trkpt>
      <trkpt lat="44.93602" lon="5.23609">
        <ele>975.88</ele>
        <time>2017-10-01T15:13:49Z</time>
      </trkpt>
      <trkpt lat="44.93605" lon="5.23617">
        <ele>975.88</ele>
        <time>2017-10-01T15:13:55Z</time>
      </trkpt>
      <trkpt lat="44.93606" lon="5.23619">
        <ele>976.36</ele>
        <time>2017-10-01T15:13:57Z</time>
      </trkpt>
      <trkpt lat="44.9362" lon="5.23633">
        <ele>977.32</ele>
        <time>2017-10-01T15:14:09Z</time>
      </trkpt>
      <trkpt lat="44.93635" lon="5.2364">
        <ele>978.28</ele>
        <time>2017-10-01T15:14:20Z</time>
      </trkpt>
      <trkpt lat="44.93638" lon="5.23642">
        <ele>978.28</ele>
        <time>2017-10-01T15:14:23Z</time>
      </trkpt>
      <trkpt lat="44.9365" lon="5.23647">
        <ele>979.24</ele>
        <time>2017-10-01T15:14:32Z</time>
      </trkpt>
      <trkpt lat="44.93662" lon="5.23654">
        <ele>979.72</ele>
        <time>2017-10-01T15:14:44Z</time>
      </trkpt>
      <trkpt lat="44.93669" lon="5.23656">
        <ele>980.2</ele>
        <time>2017-10-01T15:14:48Z</time>
      </trkpt>
      <trkpt lat="44.93675" lon="5.23662">
        <ele>980.2</ele>
        <time>2017-10-01T15:14:54Z</time>
      </trkpt>
      <trkpt lat="44.93687" lon="5.23673">
        <ele>980.68</ele>
        <time>2017-10-01T15:15:05Z</time>
      </trkpt>
      <trkpt lat="44.93689" lon="5.23674">
        <ele>980.68</ele>
        <time>2017-10-01T15:15:06Z</time>
      </trkpt>
      <trkpt lat="44.93695" lon="5.23677">
        <ele>981.16</ele>
        <time>2017-10-01T15:15:10Z</time>
      </trkpt>
      <trkpt lat="44.93701" lon="5.2368">
        <ele>981.64</ele>
        <time>2017-10-01T15:15:16Z</time>
      </trkpt>
      <trkpt lat="44.93711" lon="5.23684">
        <ele>982.12</ele>
        <time>2017-10-01T15:15:26Z</time>
      </trkpt>
      <trkpt lat="44.93725" lon="5.23689">
        <ele>983.09</ele>
        <time>2017-10-01T15:15:36Z</time>
      </trkpt>
      <trkpt lat="44.93737" lon="5.23692">
        <ele>983.57</ele>
        <time>2017-10-01T15:15:45Z</time>
      </trkpt>
      <trkpt lat="44.93744" lon="5.23692">
        <ele>984.53</ele>
        <time>2017-10-01T15:15:51Z</time>
      </trkpt>
      <trkpt lat="44.93754" lon="5.23696">
        <ele>984.53</ele>
        <time>2017-10-01T15:15:59Z</time>
      </trkpt>
      <trkpt lat="44.93757" lon="5.23697">
        <ele>985.01</ele>
        <time>2017-10-01T15:16:02Z</time>
      </trkpt>
      <trkpt lat="44.9376" lon="5.23698">
        <ele>984.53</ele>
        <time>2017-10-01T15:16:19Z</time>
      </trkpt>
      <trkpt lat="44.93761" lon="5.23697">
        <ele>985.01</ele>
        <time>2017-10-01T15:16:30Z</time>
      </trkpt>
      <trkpt lat="44.93765" lon="5.23698">
        <ele>985.49</ele>
        <time>2017-10-01T15:16:34Z</time>
      </trkpt>
      <trkpt lat="44.93775" lon="5.237">
        <ele>985.49</ele>
        <time>2017-10-01T15:16:42Z</time>
      </trkpt>
      <trkpt lat="44.9379" lon="5.23701">
        <ele>986.45</ele>
        <time>2017-10-01T15:16:52Z</time>
      </trkpt>
      <trkpt lat="44.93791" lon="5.23702">
        <ele>986.45</ele>
        <time>2017-10-01T15:16:53Z</time>
      </trkpt>
      <trkpt lat="44.93796" lon="5.23704">
        <ele>986.45</ele>
        <time>2017-10-01T15:16:57Z</time>
      </trkpt>
      <trkpt lat="44.93806" lon="5.23706">
        <ele>986.93</ele>
        <time>2017-10-01T15:17:05Z</time>
      </trkpt>
      <trkpt lat="44.93816" lon="5.23709">
        <ele>987.89</ele>
        <time>2017-10-01T15:17:14Z</time>
      </trkpt>
      <trkpt lat="44.93822" lon="5.23711">
        <ele>987.89</ele>
        <time>2017-10-01T15:17:19Z</time>
      </trkpt>
      <trkpt lat="44.93827" lon="5.2371">
        <ele>988.37</ele>
        <time>2017-10-01T15:17:22Z</time>
      </trkpt>
      <trkpt lat="44.93834" lon="5.23712">
        <ele>988.37</ele>
        <time>2017-10-01T15:17:28Z</time>
      </trkpt>
      <trkpt lat="44.93841" lon="5.23716">
        <ele>988.85</ele>
        <time>2017-10-01T15:17:33Z</time>
      </trkpt>
      <trkpt lat="44.93845" lon="5.23719">
        <ele>988.85</ele>
        <time>2017-10-01T15:17:38Z</time>
      </trkpt>
      <trkpt lat="44.93857" lon="5.23721">
        <ele>988.85</ele>
        <time>2017-10-01T15:17:47Z</time>
      </trkpt>
      <trkpt lat="44.93861" lon="5.23721">
        <ele>988.85</ele>
        <time>2017-10-01T15:17:50Z</time>
      </trkpt>
      <trkpt lat="44.93877" lon="5.23722">
        <ele>989.33</ele>
        <time>2017-10-01T15:18:03Z</time>
      </trkpt>
      <trkpt lat="44.93894" lon="5.23721">
        <ele>989.81</ele>
        <time>2017-10-01T15:18:15Z</time>
      </trkpt>
      <trkpt lat="44.93897" lon="5.23721">
        <ele>989.81</ele>
        <time>2017-10-01T15:18:18Z</time>
      </trkpt>
      <trkpt lat="44.93903" lon="5.23723">
        <ele>989.81</ele>
        <time>2017-10-01T15:18:22Z</time>
      </trkpt>
      <trkpt lat="44.93908" lon="5.23723">
        <ele>989.81</ele>
        <time>2017-10-01T15:18:27Z</time>
      </trkpt>
      <trkpt lat="44.93924" lon="5.23725">
        <ele>990.3</ele>
        <time>2017-10-01T15:18:39Z</time>
      </trkpt>
      <trkpt lat="44.93936" lon="5.23723">
        <ele>990.78</ele>
        <time>2017-10-01T15:18:48Z</time>
      </trkpt>
      <trkpt lat="44.93945" lon="5.23724">
        <ele>990.78</ele>
        <time>2017-10-01T15:18:56Z</time>
      </trkpt>
      <trkpt lat="44.93952" lon="5.2372">
        <ele>990.78</ele>
        <time>2017-10-01T15:19:07Z</time>
      </trkpt>
      <trkpt lat="44.93952" lon="5.2372">
        <ele>990.78</ele>
        <time>2017-10-01T15:19:19Z</time>
      </trkpt>
      <trkpt lat="44.93954" lon="5.2372">
        <ele>991.26</ele>
        <time>2017-10-01T15:19:21Z</time>
      </trkpt>
      <trkpt lat="44.93967" lon="5.2371">
        <ele>991.74</ele>
        <time>2017-10-01T15:19:34Z</time>
      </trkpt>
      <trkpt lat="44.93981" lon="5.23697">
        <ele>992.22</ele>
        <time>2017-10-01T15:19:47Z</time>
      </trkpt>
      <trkpt lat="44.93994" lon="5.23689">
        <ele>992.7</ele>
        <time>2017-10-01T15:19:56Z</time>
      </trkpt>
      <trkpt lat="44.94001" lon="5.23684">
        <ele>992.7</ele>
        <time>2017-10-01T15:20:01Z</time>
      </trkpt>
      <trkpt lat="44.94004" lon="5.23681">
        <ele>992.7</ele>
        <time>2017-10-01T15:20:05Z</time>
      </trkpt>
      <trkpt lat="44.94011" lon="5.23673">
        <ele>993.18</ele>
        <time>2017-10-01T15:20:13Z</time>
      </trkpt>
      <trkpt lat="44.94013" lon="5.2367">
        <ele>993.18</ele>
        <time>2017-10-01T15:20:15Z</time>
      </trkpt>
      <trkpt lat="44.94017" lon="5.23665">
        <ele>993.18</ele>
        <time>2017-10-01T15:20:20Z</time>
      </trkpt>
      <trkpt lat="44.94019" lon="5.2366">
        <ele>993.66</ele>
        <time>2017-10-01T15:20:23Z</time>
      </trkpt>
      <trkpt lat="44.94023" lon="5.23653">
        <ele>993.66</ele>
        <time>2017-10-01T15:20:28Z</time>
      </trkpt>
      <trkpt lat="44.94025" lon="5.2365">
        <ele>993.66</ele>
        <time>2017-10-01T15:20:31Z</time>
      </trkpt>
      <trkpt lat="44.94033" lon="5.23633">
        <ele>994.14</ele>
        <time>2017-10-01T15:20:43Z</time>
      </trkpt>
      <trkpt lat="44.94034" lon="5.23631">
        <ele>994.14</ele>
        <time>2017-10-01T15:20:59Z</time>
      </trkpt>
      <trkpt lat="44.94035" lon="5.23629">
        <ele>994.14</ele>
        <time>2017-10-01T15:21:13Z</time>
      </trkpt>
      <trkpt lat="44.94035" lon="5.23629">
        <ele>994.62</ele>
        <time>2017-10-01T15:21:36Z</time>
      </trkpt>
      <trkpt lat="44.94035" lon="5.2363">
        <ele>994.62</ele>
        <time>2017-10-01T15:22:03Z</time>
      </trkpt>
      <trkpt lat="44.94035" lon="5.23627">
        <ele>995.1</ele>
        <time>2017-10-01T15:22:20Z</time>
      </trkpt>
      <trkpt lat="44.94038" lon="5.23612">
        <ele>995.1</ele>
        <time>2017-10-01T15:22:30Z</time>
      </trkpt>
      <trkpt lat="44.94043" lon="5.23601">
        <ele>995.1</ele>
        <time>2017-10-01T15:22:42Z</time>
      </trkpt>
      <trkpt lat="44.94043" lon="5.23601">
        <ele>995.58</ele>
        <time>2017-10-01T15:22:53Z</time>
      </trkpt>
      <trkpt lat="44.9404" lon="5.2359">
        <ele>995.58</ele>
        <time>2017-10-01T15:22:59Z</time>
      </trkpt>
      <trkpt lat="44.94028" lon="5.23583">
        <ele>997.02</ele>
        <time>2017-10-01T15:23:12Z</time>
      </trkpt>
      <trkpt lat="44.94023" lon="5.23578">
        <ele>997.02</ele>
        <time>2017-10-01T15:23:17Z</time>
      </trkpt>
      <trkpt lat="44.94014" lon="5.23565">
        <ele>997.99</ele>
        <time>2017-10-01T15:23:27Z</time>
      </trkpt>
      <trkpt lat="44.9401" lon="5.2356">
        <ele>998.47</ele>
        <time>2017-10-01T15:23:32Z</time>
      </trkpt>
      <trkpt lat="44.94002" lon="5.23553">
        <ele>998.95</ele>
        <time>2017-10-01T15:23:41Z</time>
      </trkpt>
      <trkpt lat="44.94" lon="5.23548">
        <ele>999.43</ele>
        <time>2017-10-01T15:23:44Z</time>
      </trkpt>
      <trkpt lat="44.93999" lon="5.23543">
        <ele>999.43</ele>
        <time>2017-10-01T15:23:47Z</time>
      </trkpt>
      <trkpt lat="44.93997" lon="5.23537">
        <ele>999.91</ele>
        <time>2017-10-01T15:23:52Z</time>
      </trkpt>
      <trkpt lat="44.93995" lon="5.23525">
        <ele>999.91</ele>
        <time>2017-10-01T15:24:00Z</time>
      </trkpt>
      <trkpt lat="44.93994" lon="5.23515">
        <ele>1000.39</ele>
        <time>2017-10-01T15:24:07Z</time>
      </trkpt>
      <trkpt lat="44.93994" lon="5.23501">
        <ele>1001.35</ele>
        <time>2017-10-01T15:24:17Z</time>
      </trkpt>
      <trkpt lat="44.93994" lon="5.23498">
        <ele>1001.83</ele>
        <time>2017-10-01T15:24:19Z</time>
      </trkpt>
      <trkpt lat="44.93992" lon="5.23481">
        <ele>1002.79</ele>
        <time>2017-10-01T15:24:31Z</time>
      </trkpt>
      <trkpt lat="44.93991" lon="5.23478">
        <ele>1003.27</ele>
        <time>2017-10-01T15:24:33Z</time>
      </trkpt>
      <trkpt lat="44.93985" lon="5.23465">
        <ele>1004.72</ele>
        <time>2017-10-01T15:24:43Z</time>
      </trkpt>
      <trkpt lat="44.9398" lon="5.23452">
        <ele>1005.68</ele>
        <time>2017-10-01T15:24:53Z</time>
      </trkpt>
      <trkpt lat="44.93977" lon="5.23442">
        <ele>1007.12</ele>
        <time>2017-10-01T15:25:01Z</time>
      </trkpt>
      <trkpt lat="44.93976" lon="5.23437">
        <ele>1008.08</ele>
        <time>2017-10-01T15:25:06Z</time>
      </trkpt>
      <trkpt lat="44.93975" lon="5.23431">
        <ele>1008.56</ele>
        <time>2017-10-01T15:25:10Z</time>
      </trkpt>
      <trkpt lat="44.93975" lon="5.23424">
        <ele>1009.04</ele>
        <time>2017-10-01T15:25:14Z</time>
      </trkpt>
      <trkpt lat="44.93975" lon="5.23416">
        <ele>1009.04</ele>
        <time>2017-10-01T15:25:19Z</time>
      </trkpt>
      <trkpt lat="44.93974" lon="5.23408">
        <ele>1010</ele>
        <time>2017-10-01T15:25:24Z</time>
      </trkpt>
      <trkpt lat="44.93971" lon="5.23391">
        <ele>1011.44</ele>
        <time>2017-10-01T15:25:35Z</time>
      </trkpt>
      <trkpt lat="44.93965" lon="5.23375">
        <ele>1012.41</ele>
        <time>2017-10-01T15:25:45Z</time>
      </trkpt>
      <trkpt lat="44.93965" lon="5.23374">
        <ele>1012.89</ele>
        <time>2017-10-01T15:25:46Z</time>
      </trkpt>
      <trkpt lat="44.9396" lon="5.23365">
        <ele>1013.37</ele>
        <time>2017-10-01T15:25:52Z</time>
      </trkpt>
      <trkpt lat="44.93955" lon="5.2336">
        <ele>1013.85</ele>
        <time>2017-10-01T15:25:57Z</time>
      </trkpt>
      <trkpt lat="44.9395" lon="5.23358">
        <ele>1014.33</ele>
        <time>2017-10-01T15:26:05Z</time>
      </trkpt>
      <trkpt lat="44.93949" lon="5.23357">
        <ele>1013.85</ele>
        <time>2017-10-01T15:26:06Z</time>
      </trkpt>
      <trkpt lat="44.93942" lon="5.23347">
        <ele>1014.33</ele>
        <time>2017-10-01T15:26:14Z</time>
      </trkpt>
      <trkpt lat="44.93928" lon="5.23339">
        <ele>1015.29</ele>
        <time>2017-10-01T15:26:25Z</time>
      </trkpt>
      <trkpt lat="44.93922" lon="5.2334">
        <ele>1015.77</ele>
        <time>2017-10-01T15:26:30Z</time>
      </trkpt>
      <trkpt lat="44.93914" lon="5.23343">
        <ele>1017.21</ele>
        <time>2017-10-01T15:26:38Z</time>
      </trkpt>
      <trkpt lat="44.93909" lon="5.23348">
        <ele>1017.69</ele>
        <time>2017-10-01T15:26:44Z</time>
      </trkpt>
      <trkpt lat="44.93904" lon="5.23349">
        <ele>1018.65</ele>
        <time>2017-10-01T15:26:49Z</time>
      </trkpt>
      <trkpt lat="44.93896" lon="5.23353">
        <ele>1018.65</ele>
        <time>2017-10-01T15:26:55Z</time>
      </trkpt>
      <trkpt lat="44.93887" lon="5.23355">
        <ele>1019.62</ele>
        <time>2017-10-01T15:27:02Z</time>
      </trkpt>
      <trkpt lat="44.93873" lon="5.23355">
        <ele>1020.58</ele>
        <time>2017-10-01T15:27:13Z</time>
      </trkpt>
      <trkpt lat="44.93871" lon="5.23354">
        <ele>1020.58</ele>
        <time>2017-10-01T15:27:17Z</time>
      </trkpt>
      <trkpt lat="44.93863" lon="5.23349">
        <ele>1021.06</ele>
        <time>2017-10-01T15:27:25Z</time>
      </trkpt>
      <trkpt lat="44.93859" lon="5.23343">
        <ele>1022.02</ele>
        <time>2017-10-01T15:27:31Z</time>
      </trkpt>
      <trkpt lat="44.93855" lon="5.23343">
        <ele>1022.02</ele>
        <time>2017-10-01T15:27:33Z</time>
      </trkpt>
      <trkpt lat="44.93841" lon="5.23333">
        <ele>1022.5</ele>
        <time>2017-10-01T15:27:43Z</time>
      </trkpt>
      <trkpt lat="44.9384" lon="5.23332">
        <ele>1022.5</ele>
        <time>2017-10-01T15:27:44Z</time>
      </trkpt>
      <trkpt lat="44.93826" lon="5.23325">
        <ele>1022.5</ele>
        <time>2017-10-01T15:27:55Z</time>
      </trkpt>
      <trkpt lat="44.93821" lon="5.23321">
        <ele>1022.02</ele>
        <time>2017-10-01T15:28:00Z</time>
      </trkpt>
      <trkpt lat="44.93813" lon="5.23315">
        <ele>1022.02</ele>
        <time>2017-10-01T15:28:07Z</time>
      </trkpt>
      <trkpt lat="44.93807" lon="5.2331">
        <ele>1022.5</ele>
        <time>2017-10-01T15:28:12Z</time>
      </trkpt>
      <trkpt lat="44.9379" lon="5.23298">
        <ele>1020.1</ele>
        <time>2017-10-01T15:28:27Z</time>
      </trkpt>
      <trkpt lat="44.93789" lon="5.23298">
        <ele>1024.9</ele>
        <time>2017-10-01T15:28:28Z</time>
      </trkpt>
      <trkpt lat="44.93785" lon="5.23294">
        <ele>1023.46</ele>
        <time>2017-10-01T15:28:33Z</time>
      </trkpt>
      <trkpt lat="44.93783" lon="5.23293">
        <ele>1023.46</ele>
        <time>2017-10-01T15:28:36Z</time>
      </trkpt>
      <trkpt lat="44.93779" lon="5.2329">
        <ele>1023.94</ele>
        <time>2017-10-01T15:28:40Z</time>
      </trkpt>
      <trkpt lat="44.93771" lon="5.23283">
        <ele>1024.42</ele>
        <time>2017-10-01T15:28:47Z</time>
      </trkpt>
      <trkpt lat="44.9376" lon="5.23277">
        <ele>1025.38</ele>
        <time>2017-10-01T15:28:59Z</time>
      </trkpt>
      <trkpt lat="44.9376" lon="5.23277">
        <ele>1025.38</ele>
        <time>2017-10-01T15:29:01Z</time>
      </trkpt>
      <trkpt lat="44.93754" lon="5.23274">
        <ele>1026.34</ele>
        <time>2017-10-01T15:29:07Z</time>
      </trkpt>
      <trkpt lat="44.93742" lon="5.23272">
        <ele>1027.31</ele>
        <time>2017-10-01T15:29:17Z</time>
      </trkpt>
      <trkpt lat="44.93738" lon="5.2327">
        <ele>1028.27</ele>
        <time>2017-10-01T15:29:22Z</time>
      </trkpt>
      <trkpt lat="44.93733" lon="5.23268">
        <ele>1028.75</ele>
        <time>2017-10-01T15:29:27Z</time>
      </trkpt>
      <trkpt lat="44.93729" lon="5.23267">
        <ele>1029.23</ele>
        <time>2017-10-01T15:29:31Z</time>
      </trkpt>
      <trkpt lat="44.93718" lon="5.23264">
        <ele>1030.67</ele>
        <time>2017-10-01T15:29:43Z</time>
      </trkpt>
      <trkpt lat="44.93713" lon="5.23261">
        <ele>1031.15</ele>
        <time>2017-10-01T15:29:48Z</time>
      </trkpt>
      <trkpt lat="44.93709" lon="5.2326">
        <ele>1031.63</ele>
        <time>2017-10-01T15:29:52Z</time>
      </trkpt>
      <trkpt lat="44.937" lon="5.2326">
        <ele>1032.59</ele>
        <time>2017-10-01T15:30:04Z</time>
      </trkpt>
      <trkpt lat="44.937" lon="5.2326">
        <ele>1033.07</ele>
        <time>2017-10-01T15:30:05Z</time>
      </trkpt>
      <trkpt lat="44.93695" lon="5.23258">
        <ele>1033.55</ele>
        <time>2017-10-01T15:30:09Z</time>
      </trkpt>
      <trkpt lat="44.93693" lon="5.23258">
        <ele>1034.04</ele>
        <time>2017-10-01T15:30:11Z</time>
      </trkpt>
      <trkpt lat="44.93692" lon="5.23255">
        <ele>1034.52</ele>
        <time>2017-10-01T15:30:13Z</time>
      </trkpt>
      <trkpt lat="44.93689" lon="5.23254">
        <ele>1034.52</ele>
        <time>2017-10-01T15:30:15Z</time>
      </trkpt>
      <trkpt lat="44.9368" lon="5.23247">
        <ele>1035.96</ele>
        <time>2017-10-01T15:30:25Z</time>
      </trkpt>
      <trkpt lat="44.93673" lon="5.2324">
        <ele>1036.92</ele>
        <time>2017-10-01T15:30:34Z</time>
      </trkpt>
      <trkpt lat="44.93671" lon="5.23239">
        <ele>1037.4</ele>
        <time>2017-10-01T15:30:36Z</time>
      </trkpt>
      <trkpt lat="44.93664" lon="5.23232">
        <ele>1038.84</ele>
        <time>2017-10-01T15:30:45Z</time>
      </trkpt>
      <trkpt lat="44.9366" lon="5.23229">
        <ele>1039.32</ele>
        <time>2017-10-01T15:30:49Z</time>
      </trkpt>
      <trkpt lat="44.93651" lon="5.23219">
        <ele>1040.76</ele>
        <time>2017-10-01T15:31:00Z</time>
      </trkpt>
      <trkpt lat="44.93644" lon="5.23213">
        <ele>1041.73</ele>
        <time>2017-10-01T15:31:08Z</time>
      </trkpt>
      <trkpt lat="44.93638" lon="5.23205">
        <ele>1042.69</ele>
        <time>2017-10-01T15:31:18Z</time>
      </trkpt>
      <trkpt lat="44.9363" lon="5.23199">
        <ele>1044.61</ele>
        <time>2017-10-01T15:31:28Z</time>
      </trkpt>
      <trkpt lat="44.9362" lon="5.2319">
        <ele>1046.05</ele>
        <time>2017-10-01T15:31:40Z</time>
      </trkpt>
      <trkpt lat="44.93615" lon="5.23187">
        <ele>1047.49</ele>
        <time>2017-10-01T15:31:47Z</time>
      </trkpt>
      <trkpt lat="44.93606" lon="5.23178">
        <ele>1048.94</ele>
        <time>2017-10-01T15:31:57Z</time>
      </trkpt>
      <trkpt lat="44.93596" lon="5.2317">
        <ele>1050.38</ele>
        <time>2017-10-01T15:32:08Z</time>
      </trkpt>
      <trkpt lat="44.93589" lon="5.23165">
        <ele>1051.34</ele>
        <time>2017-10-01T15:32:19Z</time>
      </trkpt>
      <trkpt lat="44.93588" lon="5.23164">
        <ele>1051.82</ele>
        <time>2017-10-01T15:32:21Z</time>
      </trkpt>
      <trkpt lat="44.93585" lon="5.23161">
        <ele>1051.82</ele>
        <time>2017-10-01T15:32:24Z</time>
      </trkpt>
      <trkpt lat="44.93581" lon="5.23158">
        <ele>1052.78</ele>
        <time>2017-10-01T15:32:28Z</time>
      </trkpt>
      <trkpt lat="44.93573" lon="5.23149">
        <ele>1054.22</ele>
        <time>2017-10-01T15:32:40Z</time>
      </trkpt>
      <trkpt lat="44.93562" lon="5.23144">
        <ele>1055.18</ele>
        <time>2017-10-01T15:32:52Z</time>
      </trkpt>
      <trkpt lat="44.93562" lon="5.23144">
        <ele>1054.7</ele>
        <time>2017-10-01T15:33:24Z</time>
      </trkpt>
      <trkpt lat="44.93556" lon="5.2314">
        <ele>1055.18</ele>
        <time>2017-10-01T15:33:35Z</time>
      </trkpt>
      <trkpt lat="44.9355" lon="5.23134">
        <ele>1056.15</ele>
        <time>2017-10-01T15:33:43Z</time>
      </trkpt>
      <trkpt lat="44.93545" lon="5.23131">
        <ele>1057.11</ele>
        <time>2017-10-01T15:33:47Z</time>
      </trkpt>
      <trkpt lat="44.93535" lon="5.23125">
        <ele>1057.11</ele>
        <time>2017-10-01T15:33:57Z</time>
      </trkpt>
      <trkpt lat="44.93525" lon="5.23117">
        <ele>1058.55</ele>
        <time>2017-10-01T15:34:09Z</time>
      </trkpt>
      <trkpt lat="44.93516" lon="5.2311">
        <ele>1059.99</ele>
        <time>2017-10-01T15:34:20Z</time>
      </trkpt>
      <trkpt lat="44.93508" lon="5.23104">
        <ele>1060.95</ele>
        <time>2017-10-01T15:34:29Z</time>
      </trkpt>
      <trkpt lat="44.93502" lon="5.23099">
        <ele>1061.91</ele>
        <time>2017-10-01T15:34:36Z</time>
      </trkpt>
      <trkpt lat="44.93497" lon="5.23096">
        <ele>1062.39</ele>
        <time>2017-10-01T15:34:40Z</time>
      </trkpt>
      <trkpt lat="44.93489" lon="5.23094">
        <ele>1063.36</ele>
        <time>2017-10-01T15:34:46Z</time>
      </trkpt>
      <trkpt lat="44.93479" lon="5.23085">
        <ele>1064.8</ele>
        <time>2017-10-01T15:34:58Z</time>
      </trkpt>
      <trkpt lat="44.93472" lon="5.2308">
        <ele>1066.24</ele>
        <time>2017-10-01T15:35:07Z</time>
      </trkpt>
      <trkpt lat="44.93471" lon="5.23078">
        <ele>1066.72</ele>
        <time>2017-10-01T15:35:09Z</time>
      </trkpt>
      <trkpt lat="44.93466" lon="5.23076">
        <ele>1066.72</ele>
        <time>2017-10-01T15:35:14Z</time>
      </trkpt>
      <trkpt lat="44.93464" lon="5.23072">
        <ele>1068.16</ele>
        <time>2017-10-01T15:35:18Z</time>
      </trkpt>
      <trkpt lat="44.93461" lon="5.23069">
        <ele>1068.16</ele>
        <time>2017-10-01T15:35:24Z</time>
      </trkpt>
      <trkpt lat="44.93451" lon="5.23061">
        <ele>1069.6</ele>
        <time>2017-10-01T15:35:36Z</time>
      </trkpt>
      <trkpt lat="44.93443" lon="5.23054">
        <ele>1071.05</ele>
        <time>2017-10-01T15:35:45Z</time>
      </trkpt>
      <trkpt lat="44.93431" lon="5.23048">
        <ele>1072.49</ele>
        <time>2017-10-01T15:35:56Z</time>
      </trkpt>
      <trkpt lat="44.9343" lon="5.23046">
        <ele>1072.97</ele>
        <time>2017-10-01T15:35:58Z</time>
      </trkpt>
      <trkpt lat="44.93423" lon="5.23038">
        <ele>1073.93</ele>
        <time>2017-10-01T15:36:08Z</time>
      </trkpt>
      <trkpt lat="44.93422" lon="5.23037">
        <ele>1074.41</ele>
        <time>2017-10-01T15:36:09Z</time>
      </trkpt>
      <trkpt lat="44.93418" lon="5.23032">
        <ele>1074.89</ele>
        <time>2017-10-01T15:36:14Z</time>
      </trkpt>
      <trkpt lat="44.93414" lon="5.2303">
        <ele>1075.37</ele>
        <time>2017-10-01T15:36:18Z</time>
      </trkpt>
      <trkpt lat="44.93402" lon="5.23021">
        <ele>1076.81</ele>
        <time>2017-10-01T15:36:30Z</time>
      </trkpt>
      <trkpt lat="44.93392" lon="5.23013">
        <ele>1077.29</ele>
        <time>2017-10-01T15:36:39Z</time>
      </trkpt>
      <trkpt lat="44.9338" lon="5.23008">
        <ele>1077.29</ele>
        <time>2017-10-01T15:36:49Z</time>
      </trkpt>
      <trkpt lat="44.93379" lon="5.23007">
        <ele>1076.81</ele>
        <time>2017-10-01T15:36:50Z</time>
      </trkpt>
      <trkpt lat="44.93365" lon="5.23">
        <ele>1076.33</ele>
        <time>2017-10-01T15:37:02Z</time>
      </trkpt>
      <trkpt lat="44.93362" lon="5.22998">
        <ele>1075.85</ele>
        <time>2017-10-01T15:37:05Z</time>
      </trkpt>
      <trkpt lat="44.93353" lon="5.22991">
        <ele>1074.41</ele>
        <time>2017-10-01T15:37:12Z</time>
      </trkpt>
      <trkpt lat="44.93353" lon="5.22991">
        <ele>1075.37</ele>
        <time>2017-10-01T15:37:31Z</time>
      </trkpt>
      <trkpt lat="44.93353" lon="5.22991">
        <ele>1075.85</ele>
        <time>2017-10-01T15:37:59Z</time>
      </trkpt>
      <trkpt lat="44.93353" lon="5.22991">
        <ele>1075.85</ele>
        <time>2017-10-01T15:38:05Z</time>
      </trkpt>
      <trkpt lat="44.93351" lon="5.22989">
        <ele>1075.85</ele>
        <time>2017-10-01T15:38:07Z</time>
      </trkpt>
      <trkpt lat="44.93346" lon="5.22984">
        <ele>1075.85</ele>
        <time>2017-10-01T15:38:12Z</time>
      </trkpt>
      <trkpt lat="44.93337" lon="5.22973">
        <ele>1075.37</ele>
        <time>2017-10-01T15:38:19Z</time>
      </trkpt>
      <trkpt lat="44.93334" lon="5.22968">
        <ele>1074.89</ele>
        <time>2017-10-01T15:38:24Z</time>
      </trkpt>
      <trkpt lat="44.93334" lon="5.22964">
        <ele>1074.41</ele>
        <time>2017-10-01T15:38:26Z</time>
      </trkpt>
      <trkpt lat="44.93334" lon="5.22961">
        <ele>1074.89</ele>
        <time>2017-10-01T15:38:28Z</time>
      </trkpt>
      <trkpt lat="44.93336" lon="5.22947">
        <ele>1074.41</ele>
        <time>2017-10-01T15:38:36Z</time>
      </trkpt>
      <trkpt lat="44.9334" lon="5.22935">
        <ele>1073.93</ele>
        <time>2017-10-01T15:38:44Z</time>
      </trkpt>
      <trkpt lat="44.93342" lon="5.22925">
        <ele>1074.41</ele>
        <time>2017-10-01T15:38:51Z</time>
      </trkpt>
      <trkpt lat="44.93343" lon="5.22917">
        <ele>1074.89</ele>
        <time>2017-10-01T15:39:02Z</time>
      </trkpt>
      <trkpt lat="44.93343" lon="5.22912">
        <ele>1075.37</ele>
        <time>2017-10-01T15:39:09Z</time>
      </trkpt>
      <trkpt lat="44.93342" lon="5.22904">
        <ele>1075.85</ele>
        <time>2017-10-01T15:39:14Z</time>
      </trkpt>
      <trkpt lat="44.93337" lon="5.229">
        <ele>1076.33</ele>
        <time>2017-10-01T15:39:19Z</time>
      </trkpt>
      <trkpt lat="44.93335" lon="5.22897">
        <ele>1076.81</ele>
        <time>2017-10-01T15:39:22Z</time>
      </trkpt>
      <trkpt lat="44.9333" lon="5.22895">
        <ele>1077.78</ele>
        <time>2017-10-01T15:39:28Z</time>
      </trkpt>
      <trkpt lat="44.93316" lon="5.22893">
        <ele>1078.74</ele>
        <time>2017-10-01T15:39:40Z</time>
      </trkpt>
      <trkpt lat="44.93312" lon="5.22891">
        <ele>1079.22</ele>
        <time>2017-10-01T15:39:43Z</time>
      </trkpt>
      <trkpt lat="44.93305" lon="5.22888">
        <ele>1079.7</ele>
        <time>2017-10-01T15:39:49Z</time>
      </trkpt>
      <trkpt lat="44.93301" lon="5.22887">
        <ele>1079.7</ele>
        <time>2017-10-01T15:39:55Z</time>
      </trkpt>
      <trkpt lat="44.93293" lon="5.22884">
        <ele>1081.14</ele>
        <time>2017-10-01T15:40:06Z</time>
      </trkpt>
      <trkpt lat="44.93285" lon="5.2288">
        <ele>1082.1</ele>
        <time>2017-10-01T15:40:16Z</time>
      </trkpt>
      <trkpt lat="44.93273" lon="5.22874">
        <ele>1083.06</ele>
        <time>2017-10-01T15:40:27Z</time>
      </trkpt>
      <trkpt lat="44.9327" lon="5.22874">
        <ele>1083.06</ele>
        <time>2017-10-01T15:40:29Z</time>
      </trkpt>
      <trkpt lat="44.93258" lon="5.22871">
        <ele>1083.54</ele>
        <time>2017-10-01T15:40:39Z</time>
      </trkpt>
      <trkpt lat="44.93253" lon="5.2287">
        <ele>1084.02</ele>
        <time>2017-10-01T15:40:44Z</time>
      </trkpt>
      <trkpt lat="44.93238" lon="5.22866">
        <ele>1084.99</ele>
        <time>2017-10-01T15:40:55Z</time>
      </trkpt>
      <trkpt lat="44.93238" lon="5.22865">
        <ele>1084.5</ele>
        <time>2017-10-01T15:40:56Z</time>
      </trkpt>
      <trkpt lat="44.93224" lon="5.22859">
        <ele>1084.99</ele>
        <time>2017-10-01T15:41:09Z</time>
      </trkpt>
      <trkpt lat="44.93221" lon="5.22858">
        <ele>1084.99</ele>
        <time>2017-10-01T15:41:12Z</time>
      </trkpt>
      <trkpt lat="44.93211" lon="5.22851">
        <ele>1084.99</ele>
        <time>2017-10-01T15:41:21Z</time>
      </trkpt>
      <trkpt lat="44.932" lon="5.22842">
        <ele>1084.99</ele>
        <time>2017-10-01T15:41:31Z</time>
      </trkpt>
      <trkpt lat="44.93195" lon="5.22835">
        <ele>1085.47</ele>
        <time>2017-10-01T15:41:37Z</time>
      </trkpt>
      <trkpt lat="44.93188" lon="5.22828">
        <ele>1085.95</ele>
        <time>2017-10-01T15:41:44Z</time>
      </trkpt>
      <trkpt lat="44.93183" lon="5.22825">
        <ele>1085.95</ele>
        <time>2017-10-01T15:41:47Z</time>
      </trkpt>
      <trkpt lat="44.93181" lon="5.22824">
        <ele>1085.95</ele>
        <time>2017-10-01T15:41:50Z</time>
      </trkpt>
      <trkpt lat="44.93178" lon="5.22821">
        <ele>1085.95</ele>
        <time>2017-10-01T15:41:53Z</time>
      </trkpt>
      <trkpt lat="44.9317" lon="5.22817">
        <ele>1086.43</ele>
        <time>2017-10-01T15:41:59Z</time>
      </trkpt>
      <trkpt lat="44.93161" lon="5.22821">
        <ele>1086.43</ele>
        <time>2017-10-01T15:42:06Z</time>
      </trkpt>
      <trkpt lat="44.93159" lon="5.22824">
        <ele>1086.91</ele>
        <time>2017-10-01T15:42:09Z</time>
      </trkpt>
      <trkpt lat="44.93156" lon="5.22828">
        <ele>1086.91</ele>
        <time>2017-10-01T15:42:13Z</time>
      </trkpt>
      <trkpt lat="44.93152" lon="5.22834">
        <ele>1087.87</ele>
        <time>2017-10-01T15:42:19Z</time>
      </trkpt>
      <trkpt lat="44.93143" lon="5.22841">
        <ele>1089.31</ele>
        <time>2017-10-01T15:42:28Z</time>
      </trkpt>
      <trkpt lat="44.93139" lon="5.22846">
        <ele>1089.79</ele>
        <time>2017-10-01T15:42:33Z</time>
      </trkpt>
      <trkpt lat="44.93136" lon="5.2285">
        <ele>1090.27</ele>
        <time>2017-10-01T15:42:38Z</time>
      </trkpt>
      <trkpt lat="44.93133" lon="5.22851">
        <ele>1090.75</ele>
        <time>2017-10-01T15:42:41Z</time>
      </trkpt>
      <trkpt lat="44.93118" lon="5.22863">
        <ele>1092.2</ele>
        <time>2017-10-01T15:42:54Z</time>
      </trkpt>
      <trkpt lat="44.93113" lon="5.22865">
        <ele>1092.68</ele>
        <time>2017-10-01T15:42:58Z</time>
      </trkpt>
      <trkpt lat="44.93108" lon="5.22865">
        <ele>1092.68</ele>
        <time>2017-10-01T15:43:04Z</time>
      </trkpt>
      <trkpt lat="44.93096" lon="5.22873">
        <ele>1093.16</ele>
        <time>2017-10-01T15:43:17Z</time>
      </trkpt>
      <trkpt lat="44.93081" lon="5.22881">
        <ele>1093.64</ele>
        <time>2017-10-01T15:43:28Z</time>
      </trkpt>
      <trkpt lat="44.93069" lon="5.22882">
        <ele>1093.64</ele>
        <time>2017-10-01T15:43:38Z</time>
      </trkpt>
      <trkpt lat="44.93066" lon="5.22882">
        <ele>1093.64</ele>
        <time>2017-10-01T15:43:40Z</time>
      </trkpt>
      <trkpt lat="44.93046" lon="5.22874">
        <ele>1092.68</ele>
        <time>2017-10-01T15:43:54Z</time>
      </trkpt>
      <trkpt lat="44.93039" lon="5.22873">
        <ele>1092.68</ele>
        <time>2017-10-01T15:43:58Z</time>
      </trkpt>
      <trkpt lat="44.9302" lon="5.22861">
        <ele>1091.23</ele>
        <time>2017-10-01T15:44:12Z</time>
      </trkpt>
      <trkpt lat="44.93007" lon="5.22853">
        <ele>1090.75</ele>
        <time>2017-10-01T15:44:22Z</time>
      </trkpt>
      <trkpt lat="44.92998" lon="5.22847">
        <ele>1090.27</ele>
        <time>2017-10-01T15:44:29Z</time>
      </trkpt>
      <trkpt lat="44.92995" lon="5.22845">
        <ele>1089.79</ele>
        <time>2017-10-01T15:44:32Z</time>
      </trkpt>
      <trkpt lat="44.92978" lon="5.22835">
        <ele>1089.31</ele>
        <time>2017-10-01T15:44:47Z</time>
      </trkpt>
      <trkpt lat="44.9296" lon="5.22827">
        <ele>1087.87</ele>
        <time>2017-10-01T15:45:01Z</time>
      </trkpt>
      <trkpt lat="44.92939" lon="5.22824">
        <ele>1086.91</ele>
        <time>2017-10-01T15:45:15Z</time>
      </trkpt>
      <trkpt lat="44.92937" lon="5.22824">
        <ele>1086.43</ele>
        <time>2017-10-01T15:45:16Z</time>
      </trkpt>
      <trkpt lat="44.92925" lon="5.22829">
        <ele>1086.43</ele>
        <time>2017-10-01T15:45:25Z</time>
      </trkpt>
      <trkpt lat="44.92913" lon="5.22834">
        <ele>1085.95</ele>
        <time>2017-10-01T15:45:37Z</time>
      </trkpt>
      <trkpt lat="44.92901" lon="5.22841">
        <ele>1084.99</ele>
        <time>2017-10-01T15:45:48Z</time>
      </trkpt>
      <trkpt lat="44.92898" lon="5.22843">
        <ele>1084.5</ele>
        <time>2017-10-01T15:45:50Z</time>
      </trkpt>
      <trkpt lat="44.92883" lon="5.22848">
        <ele>1083.54</ele>
        <time>2017-10-01T15:46:02Z</time>
      </trkpt>
      <trkpt lat="44.92863" lon="5.2285">
        <ele>1082.1</ele>
        <time>2017-10-01T15:46:16Z</time>
      </trkpt>
      <trkpt lat="44.9285" lon="5.22845">
        <ele>1082.1</ele>
        <time>2017-10-01T15:46:28Z</time>
      </trkpt>
      <trkpt lat="44.9284" lon="5.22837">
        <ele>1082.58</ele>
        <time>2017-10-01T15:46:36Z</time>
      </trkpt>
      <trkpt lat="44.92827" lon="5.22827">
        <ele>1083.54</ele>
        <time>2017-10-01T15:46:48Z</time>
      </trkpt>
      <trkpt lat="44.92818" lon="5.22827">
        <ele>1084.5</ele>
        <time>2017-10-01T15:46:55Z</time>
      </trkpt>
      <trkpt lat="44.92804" lon="5.22825">
        <ele>1084.99</ele>
        <time>2017-10-01T15:47:08Z</time>
      </trkpt>
      <trkpt lat="44.92791" lon="5.22822">
        <ele>1085.47</ele>
        <time>2017-10-01T15:47:19Z</time>
      </trkpt>
      <trkpt lat="44.92773" lon="5.22813">
        <ele>1085.95</ele>
        <time>2017-10-01T15:47:33Z</time>
      </trkpt>
      <trkpt lat="44.92769" lon="5.22813">
        <ele>1085.47</ele>
        <time>2017-10-01T15:47:38Z</time>
      </trkpt>
      <trkpt lat="44.92761" lon="5.2281">
        <ele>1085.47</ele>
        <time>2017-10-01T15:47:51Z</time>
      </trkpt>
      <trkpt lat="44.92759" lon="5.2281">
        <ele>1085.95</ele>
        <time>2017-10-01T15:47:53Z</time>
      </trkpt>
      <trkpt lat="44.92746" lon="5.22806">
        <ele>1085.95</ele>
        <time>2017-10-01T15:48:03Z</time>
      </trkpt>
      <trkpt lat="44.92728" lon="5.22799">
        <ele>1086.43</ele>
        <time>2017-10-01T15:48:12Z</time>
      </trkpt>
      <trkpt lat="44.9272" lon="5.22797">
        <ele>1085.95</ele>
        <time>2017-10-01T15:48:18Z</time>
      </trkpt>
      <trkpt lat="44.92717" lon="5.22796">
        <ele>1085.95</ele>
        <time>2017-10-01T15:48:20Z</time>
      </trkpt>
      <trkpt lat="44.9271" lon="5.22792">
        <ele>1085.95</ele>
        <time>2017-10-01T15:48:28Z</time>
      </trkpt>
      <trkpt lat="44.92706" lon="5.2279">
        <ele>1086.43</ele>
        <time>2017-10-01T15:48:30Z</time>
      </trkpt>
      <trkpt lat="44.92698" lon="5.2279">
        <ele>1086.91</ele>
        <time>2017-10-01T15:48:35Z</time>
      </trkpt>
      <trkpt lat="44.9269" lon="5.22787">
        <ele>1087.39</ele>
        <time>2017-10-01T15:48:42Z</time>
      </trkpt>
      <trkpt lat="44.92687" lon="5.22786">
        <ele>1087.39</ele>
        <time>2017-10-01T15:48:45Z</time>
      </trkpt>
      <trkpt lat="44.92679" lon="5.22782">
        <ele>1086.91</ele>
        <time>2017-10-01T15:48:51Z</time>
      </trkpt>
      <trkpt lat="44.92677" lon="5.22782">
        <ele>1087.39</ele>
        <time>2017-10-01T15:48:53Z</time>
      </trkpt>
      <trkpt lat="44.92667" lon="5.22779">
        <ele>1087.39</ele>
        <time>2017-10-01T15:49:01Z</time>
      </trkpt>
      <trkpt lat="44.92661" lon="5.22777">
        <ele>1087.39</ele>
        <time>2017-10-01T15:49:08Z</time>
      </trkpt>
      <trkpt lat="44.92654" lon="5.22775">
        <ele>1086.91</ele>
        <time>2017-10-01T15:49:12Z</time>
      </trkpt>
      <trkpt lat="44.92651" lon="5.22776">
        <ele>1086.91</ele>
        <time>2017-10-01T15:49:15Z</time>
      </trkpt>
      <trkpt lat="44.92649" lon="5.22775">
        <ele>1086.91</ele>
        <time>2017-10-01T15:49:17Z</time>
      </trkpt>
      <trkpt lat="44.92645" lon="5.22773">
        <ele>1086.91</ele>
        <time>2017-10-01T15:49:20Z</time>
      </trkpt>
      <trkpt lat="44.92629" lon="5.22764">
        <ele>1085.95</ele>
        <time>2017-10-01T15:49:32Z</time>
      </trkpt>
      <trkpt lat="44.92615" lon="5.22751">
        <ele>1085.47</ele>
        <time>2017-10-01T15:49:45Z</time>
      </trkpt>
      <trkpt lat="44.92603" lon="5.2274">
        <ele>1085.47</ele>
        <time>2017-10-01T15:49:57Z</time>
      </trkpt>
      <trkpt lat="44.92587" lon="5.2273">
        <ele>1084.99</ele>
        <time>2017-10-01T15:50:10Z</time>
      </trkpt>
      <trkpt lat="44.92587" lon="5.22729">
        <ele>1084.99</ele>
        <time>2017-10-01T15:50:11Z</time>
      </trkpt>
      <trkpt lat="44.92582" lon="5.22725">
        <ele>1084.99</ele>
        <time>2017-10-01T15:50:15Z</time>
      </trkpt>
      <trkpt lat="44.92578" lon="5.2272">
        <ele>1084.99</ele>
        <time>2017-10-01T15:50:19Z</time>
      </trkpt>
      <trkpt lat="44.92574" lon="5.22717">
        <ele>1084.5</ele>
        <time>2017-10-01T15:50:24Z</time>
      </trkpt>
      <trkpt lat="44.92571" lon="5.22713">
        <ele>1084.99</ele>
        <time>2017-10-01T15:50:27Z</time>
      </trkpt>
      <trkpt lat="44.92561" lon="5.22703">
        <ele>1084.99</ele>
        <time>2017-10-01T15:50:35Z</time>
      </trkpt>
      <trkpt lat="44.92559" lon="5.22702">
        <ele>1084.99</ele>
        <time>2017-10-01T15:50:37Z</time>
      </trkpt>
      <trkpt lat="44.9255" lon="5.22695">
        <ele>1085.47</ele>
        <time>2017-10-01T15:50:45Z</time>
      </trkpt>
      <trkpt lat="44.92543" lon="5.22688">
        <ele>1085.95</ele>
        <time>2017-10-01T15:50:51Z</time>
      </trkpt>
      <trkpt lat="44.9254" lon="5.22686">
        <ele>1085.95</ele>
        <time>2017-10-01T15:50:53Z</time>
      </trkpt>
      <trkpt lat="44.9253" lon="5.22678">
        <ele>1086.43</ele>
        <time>2017-10-01T15:51:02Z</time>
      </trkpt>
      <trkpt lat="44.92523" lon="5.22668">
        <ele>1086.91</ele>
        <time>2017-10-01T15:51:10Z</time>
      </trkpt>
      <trkpt lat="44.92516" lon="5.2266">
        <ele>1086.91</ele>
        <time>2017-10-01T15:51:17Z</time>
      </trkpt>
      <trkpt lat="44.92512" lon="5.22657">
        <ele>1087.39</ele>
        <time>2017-10-01T15:51:20Z</time>
      </trkpt>
      <trkpt lat="44.92507" lon="5.22651">
        <ele>1087.39</ele>
        <time>2017-10-01T15:51:27Z</time>
      </trkpt>
      <trkpt lat="44.92505" lon="5.2265">
        <ele>1087.39</ele>
        <time>2017-10-01T15:51:29Z</time>
      </trkpt>
      <trkpt lat="44.92496" lon="5.22647">
        <ele>1087.87</ele>
        <time>2017-10-01T15:51:37Z</time>
      </trkpt>
      <trkpt lat="44.9249" lon="5.22642">
        <ele>1087.39</ele>
        <time>2017-10-01T15:51:44Z</time>
      </trkpt>
      <trkpt lat="44.92488" lon="5.2264">
        <ele>1087.87</ele>
        <time>2017-10-01T15:51:46Z</time>
      </trkpt>
      <trkpt lat="44.9247" lon="5.22629">
        <ele>1088.35</ele>
        <time>2017-10-01T15:52:00Z</time>
      </trkpt>
      <trkpt lat="44.92452" lon="5.22624">
        <ele>1088.35</ele>
        <time>2017-10-01T15:52:11Z</time>
      </trkpt>
      <trkpt lat="44.92448" lon="5.22623">
        <ele>1088.35</ele>
        <time>2017-10-01T15:52:14Z</time>
      </trkpt>
      <trkpt lat="44.9244" lon="5.22623">
        <ele>1088.83</ele>
        <time>2017-10-01T15:52:20Z</time>
      </trkpt>
      <trkpt lat="44.92437" lon="5.22622">
        <ele>1089.31</ele>
        <time>2017-10-01T15:52:22Z</time>
      </trkpt>
      <trkpt lat="44.92429" lon="5.22619">
        <ele>1089.31</ele>
        <time>2017-10-01T15:52:29Z</time>
      </trkpt>
      <trkpt lat="44.92414" lon="5.22614">
        <ele>1089.79</ele>
        <time>2017-10-01T15:52:41Z</time>
      </trkpt>
      <trkpt lat="44.92408" lon="5.2261">
        <ele>1090.27</ele>
        <time>2017-10-01T15:52:45Z</time>
      </trkpt>
      <trkpt lat="44.92404" lon="5.22609">
        <ele>1090.75</ele>
        <time>2017-10-01T15:52:50Z</time>
      </trkpt>
      <trkpt lat="44.92384" lon="5.22604">
        <ele>1090.75</ele>
        <time>2017-10-01T15:53:04Z</time>
      </trkpt>
      <trkpt lat="44.92375" lon="5.22606">
        <ele>1090.27</ele>
        <time>2017-10-01T15:53:10Z</time>
      </trkpt>
      <trkpt lat="44.92365" lon="5.22603">
        <ele>1090.27</ele>
        <time>2017-10-01T15:53:22Z</time>
      </trkpt>
      <trkpt lat="44.92357" lon="5.22605">
        <ele>1090.27</ele>
        <time>2017-10-01T15:53:28Z</time>
      </trkpt>
      <trkpt lat="44.9234" lon="5.22603">
        <ele>1090.27</ele>
        <time>2017-10-01T15:53:41Z</time>
      </trkpt>
      <trkpt lat="44.9233" lon="5.22603">
        <ele>1090.27</ele>
        <time>2017-10-01T15:53:47Z</time>
      </trkpt>
      <trkpt lat="44.92321" lon="5.22603">
        <ele>1090.27</ele>
        <time>2017-10-01T15:53:52Z</time>
      </trkpt>
      <trkpt lat="44.92317" lon="5.22605">
        <ele>1090.27</ele>
        <time>2017-10-01T15:53:55Z</time>
      </trkpt>
      <trkpt lat="44.92307" lon="5.22611">
        <ele>1090.27</ele>
        <time>2017-10-01T15:54:02Z</time>
      </trkpt>
      <trkpt lat="44.92293" lon="5.22619">
        <ele>1089.79</ele>
        <time>2017-10-01T15:54:12Z</time>
      </trkpt>
      <trkpt lat="44.92286" lon="5.22615">
        <ele>1089.79</ele>
        <time>2017-10-01T15:54:27Z</time>
      </trkpt>
      <trkpt lat="44.92274" lon="5.22612">
        <ele>1089.79</ele>
        <time>2017-10-01T15:54:36Z</time>
      </trkpt>
      <trkpt lat="44.92259" lon="5.22609">
        <ele>1089.79</ele>
        <time>2017-10-01T15:54:47Z</time>
      </trkpt>
      <trkpt lat="44.92252" lon="5.22612">
        <ele>1090.27</ele>
        <time>2017-10-01T15:54:58Z</time>
      </trkpt>
      <trkpt lat="44.92249" lon="5.22614">
        <ele>1090.27</ele>
        <time>2017-10-01T15:55:00Z</time>
      </trkpt>
      <trkpt lat="44.92237" lon="5.2262">
        <ele>1090.75</ele>
        <time>2017-10-01T15:55:11Z</time>
      </trkpt>
      <trkpt lat="44.92233" lon="5.22622">
        <ele>1090.75</ele>
        <time>2017-10-01T15:55:14Z</time>
      </trkpt>
      <trkpt lat="44.92227" lon="5.22624">
        <ele>1090.27</ele>
        <time>2017-10-01T15:55:17Z</time>
      </trkpt>
      <trkpt lat="44.92217" lon="5.22633">
        <ele>1090.27</ele>
        <time>2017-10-01T15:55:25Z</time>
      </trkpt>
      <trkpt lat="44.92212" lon="5.22635">
        <ele>1090.27</ele>
        <time>2017-10-01T15:55:29Z</time>
      </trkpt>
      <trkpt lat="44.92207" lon="5.22638">
        <ele>1090.27</ele>
        <time>2017-10-01T15:55:33Z</time>
      </trkpt>
      <trkpt lat="44.922" lon="5.22645">
        <ele>1091.71</ele>
        <time>2017-10-01T15:55:41Z</time>
      </trkpt>
      <trkpt lat="44.92191" lon="5.22655">
        <ele>1092.68</ele>
        <time>2017-10-01T15:55:56Z</time>
      </trkpt>
      <trkpt lat="44.92191" lon="5.22647">
        <ele>1092.68</ele>
        <time>2017-10-01T15:56:02Z</time>
      </trkpt>
      <trkpt lat="44.92191" lon="5.22642">
        <ele>1091.71</ele>
        <time>2017-10-01T15:56:05Z</time>
      </trkpt>
      <trkpt lat="44.92193" lon="5.22625">
        <ele>1090.75</ele>
        <time>2017-10-01T15:56:18Z</time>
      </trkpt>
      <trkpt lat="44.92185" lon="5.22606">
        <ele>1092.68</ele>
        <time>2017-10-01T15:56:31Z</time>
      </trkpt>
      <trkpt lat="44.92179" lon="5.22593">
        <ele>1095.08</ele>
        <time>2017-10-01T15:56:42Z</time>
      </trkpt>
      <trkpt lat="44.92177" lon="5.22582">
        <ele>1097</ele>
        <time>2017-10-01T15:56:52Z</time>
      </trkpt>
      <trkpt lat="44.92177" lon="5.22581">
        <ele>1097.48</ele>
        <time>2017-10-01T15:56:53Z</time>
      </trkpt>
      <trkpt lat="44.92174" lon="5.22576">
        <ele>1097.96</ele>
        <time>2017-10-01T15:57:01Z</time>
      </trkpt>
      <trkpt lat="44.92173" lon="5.22572">
        <ele>1098.44</ele>
        <time>2017-10-01T15:57:16Z</time>
      </trkpt>
      <trkpt lat="44.92173" lon="5.22569">
        <ele>1099.4</ele>
        <time>2017-10-01T15:57:21Z</time>
      </trkpt>
      <trkpt lat="44.92173" lon="5.22566">
        <ele>1099.4</ele>
        <time>2017-10-01T15:57:34Z</time>
      </trkpt>
      <trkpt lat="44.92173" lon="5.22566">
        <ele>1099.4</ele>
        <time>2017-10-01T15:57:36Z</time>
      </trkpt>
      <trkpt lat="44.92173" lon="5.22564">
        <ele>1099.4</ele>
        <time>2017-10-01T15:57:49Z</time>
      </trkpt>
      <trkpt lat="44.92171" lon="5.22563">
        <ele>1099.89</ele>
        <time>2017-10-01T15:58:13Z</time>
      </trkpt>
      <trkpt lat="44.92161" lon="5.2255">
        <ele>1100.85</ele>
        <time>2017-10-01T15:58:23Z</time>
      </trkpt>
      <trkpt lat="44.92155" lon="5.22541">
        <ele>1102.77</ele>
        <time>2017-10-01T15:58:29Z</time>
      </trkpt>
      <trkpt lat="44.92152" lon="5.22533">
        <ele>1104.21</ele>
        <time>2017-10-01T15:58:35Z</time>
      </trkpt>
      <trkpt lat="44.92146" lon="5.22526">
        <ele>1105.65</ele>
        <time>2017-10-01T15:58:41Z</time>
      </trkpt>
      <trkpt lat="44.92137" lon="5.2252">
        <ele>1107.58</ele>
        <time>2017-10-01T15:58:50Z</time>
      </trkpt>
      <trkpt lat="44.92129" lon="5.22516">
        <ele>1109.02</ele>
        <time>2017-10-01T15:59:02Z</time>
      </trkpt>
      <trkpt lat="44.92121" lon="5.22513">
        <ele>1109.5</ele>
        <time>2017-10-01T15:59:11Z</time>
      </trkpt>
      <trkpt lat="44.92113" lon="5.22508">
        <ele>1109.5</ele>
        <time>2017-10-01T15:59:17Z</time>
      </trkpt>
      <trkpt lat="44.92101" lon="5.22502">
        <ele>1111.42</ele>
        <time>2017-10-01T15:59:29Z</time>
      </trkpt>
      <trkpt lat="44.92096" lon="5.22502">
        <ele>1112.38</ele>
        <time>2017-10-01T15:59:34Z</time>
      </trkpt>
      <trkpt lat="44.92081" lon="5.22505">
        <ele>1114.31</ele>
        <time>2017-10-01T15:59:45Z</time>
      </trkpt>
      <trkpt lat="44.92076" lon="5.225">
        <ele>1115.75</ele>
        <time>2017-10-01T15:59:55Z</time>
      </trkpt>
      <trkpt lat="44.92075" lon="5.22499">
        <ele>1115.27</ele>
        <time>2017-10-01T15:59:56Z</time>
      </trkpt>
      <trkpt lat="44.92072" lon="5.22489">
        <ele>1115.75</ele>
        <time>2017-10-01T16:00:04Z</time>
      </trkpt>
      <trkpt lat="44.92069" lon="5.22484">
        <ele>1117.19</ele>
        <time>2017-10-01T16:00:09Z</time>
      </trkpt>
      <trkpt lat="44.92065" lon="5.22478">
        <ele>1117.19</ele>
        <time>2017-10-01T16:00:17Z</time>
      </trkpt>
      <trkpt lat="44.92062" lon="5.22478">
        <ele>1117.67</ele>
        <time>2017-10-01T16:00:20Z</time>
      </trkpt>
      <trkpt lat="44.9206" lon="5.22477">
        <ele>1117.67</ele>
        <time>2017-10-01T16:00:22Z</time>
      </trkpt>
      <trkpt lat="44.92058" lon="5.22476">
        <ele>1117.67</ele>
        <time>2017-10-01T16:00:24Z</time>
      </trkpt>
      <trkpt lat="44.92055" lon="5.22472">
        <ele>1118.15</ele>
        <time>2017-10-01T16:00:28Z</time>
      </trkpt>
      <trkpt lat="44.92053" lon="5.2246">
        <ele>1119.59</ele>
        <time>2017-10-01T16:00:35Z</time>
      </trkpt>
      <trkpt lat="44.92052" lon="5.22454">
        <ele>1120.07</ele>
        <time>2017-10-01T16:00:40Z</time>
      </trkpt>
      <trkpt lat="44.92052" lon="5.22449">
        <ele>1120.55</ele>
        <time>2017-10-01T16:00:43Z</time>
      </trkpt>
      <trkpt lat="44.92052" lon="5.22446">
        <ele>1120.55</ele>
        <time>2017-10-01T16:00:45Z</time>
      </trkpt>
      <trkpt lat="44.92047" lon="5.22432">
        <ele>1122</ele>
        <time>2017-10-01T16:00:57Z</time>
      </trkpt>
      <trkpt lat="44.92045" lon="5.22422">
        <ele>1122.48</ele>
        <time>2017-10-01T16:01:05Z</time>
      </trkpt>
      <trkpt lat="44.92044" lon="5.22418">
        <ele>1123.44</ele>
        <time>2017-10-01T16:01:09Z</time>
      </trkpt>
      <trkpt lat="44.92039" lon="5.224">
        <ele>1123.44</ele>
        <time>2017-10-01T16:01:21Z</time>
      </trkpt>
      <trkpt lat="44.92031" lon="5.22399">
        <ele>1124.88</ele>
        <time>2017-10-01T16:01:32Z</time>
      </trkpt>
      <trkpt lat="44.92029" lon="5.22399">
        <ele>1125.36</ele>
        <time>2017-10-01T16:01:39Z</time>
      </trkpt>
      <trkpt lat="44.92026" lon="5.224">
        <ele>1125.84</ele>
        <time>2017-10-01T16:01:43Z</time>
      </trkpt>
      <trkpt lat="44.92018" lon="5.22403">
        <ele>1126.8</ele>
        <time>2017-10-01T16:01:53Z</time>
      </trkpt>
      <trkpt lat="44.92008" lon="5.2241">
        <ele>1129.21</ele>
        <time>2017-10-01T16:02:03Z</time>
      </trkpt>
      <trkpt lat="44.92002" lon="5.22406">
        <ele>1129.69</ele>
        <time>2017-10-01T16:02:08Z</time>
      </trkpt>
      <trkpt lat="44.9199" lon="5.22396">
        <ele>1131.61</ele>
        <time>2017-10-01T16:02:21Z</time>
      </trkpt>
      <trkpt lat="44.91986" lon="5.2239">
        <ele>1133.05</ele>
        <time>2017-10-01T16:02:29Z</time>
      </trkpt>
      <trkpt lat="44.91984" lon="5.22388">
        <ele>1134.01</ele>
        <time>2017-10-01T16:02:35Z</time>
      </trkpt>
      <trkpt lat="44.91976" lon="5.22387">
        <ele>1135.45</ele>
        <time>2017-10-01T16:02:45Z</time>
      </trkpt>
      <trkpt lat="44.91976" lon="5.22387">
        <ele>1135.94</ele>
        <time>2017-10-01T16:02:46Z</time>
      </trkpt>
      <trkpt lat="44.91971" lon="5.22386">
        <ele>1135.94</ele>
        <time>2017-10-01T16:02:54Z</time>
      </trkpt>
      <trkpt lat="44.91965" lon="5.22387">
        <ele>1136.9</ele>
        <time>2017-10-01T16:03:03Z</time>
      </trkpt>
      <trkpt lat="44.9196" lon="5.22385">
        <ele>1137.38</ele>
        <time>2017-10-01T16:03:09Z</time>
      </trkpt>
      <trkpt lat="44.9195" lon="5.2238">
        <ele>1137.86</ele>
        <time>2017-10-01T16:03:18Z</time>
      </trkpt>
      <trkpt lat="44.9194" lon="5.22376">
        <ele>1139.3</ele>
        <time>2017-10-01T16:03:28Z</time>
      </trkpt>
      <trkpt lat="44.91933" lon="5.22372">
        <ele>1140.74</ele>
        <time>2017-10-01T16:03:38Z</time>
      </trkpt>
      <trkpt lat="44.91926" lon="5.22364">
        <ele>1142.66</ele>
        <time>2017-10-01T16:03:48Z</time>
      </trkpt>
      <trkpt lat="44.9192" lon="5.22356">
        <ele>1143.14</ele>
        <time>2017-10-01T16:04:03Z</time>
      </trkpt>
      <trkpt lat="44.91912" lon="5.22349">
        <ele>1144.11</ele>
        <time>2017-10-01T16:04:12Z</time>
      </trkpt>
      <trkpt lat="44.91906" lon="5.22347">
        <ele>1144.59</ele>
        <time>2017-10-01T16:04:19Z</time>
      </trkpt>
      <trkpt lat="44.91897" lon="5.22338">
        <ele>1145.55</ele>
        <time>2017-10-01T16:04:31Z</time>
      </trkpt>
      <trkpt lat="44.91895" lon="5.22335">
        <ele>1146.03</ele>
        <time>2017-10-01T16:04:32Z</time>
      </trkpt>
      <trkpt lat="44.91891" lon="5.22331">
        <ele>1146.03</ele>
        <time>2017-10-01T16:04:35Z</time>
      </trkpt>
      <trkpt lat="44.91883" lon="5.22322">
        <ele>1146.51</ele>
        <time>2017-10-01T16:04:43Z</time>
      </trkpt>
      <trkpt lat="44.91874" lon="5.22316">
        <ele>1148.43</ele>
        <time>2017-10-01T16:04:55Z</time>
      </trkpt>
      <trkpt lat="44.91865" lon="5.22308">
        <ele>1149.39</ele>
        <time>2017-10-01T16:05:06Z</time>
      </trkpt>
      <trkpt lat="44.9186" lon="5.22303">
        <ele>1150.84</ele>
        <time>2017-10-01T16:05:17Z</time>
      </trkpt>
      <trkpt lat="44.91858" lon="5.22291">
        <ele>1153.24</ele>
        <time>2017-10-01T16:05:31Z</time>
      </trkpt>
      <trkpt lat="44.91854" lon="5.22282">
        <ele>1154.68</ele>
        <time>2017-10-01T16:05:42Z</time>
      </trkpt>
      <trkpt lat="44.9185" lon="5.22263">
        <ele>1155.64</ele>
        <time>2017-10-01T16:05:48Z</time>
      </trkpt>
      <trkpt lat="44.91843" lon="5.22248">
        <ele>1156.6</ele>
        <time>2017-10-01T16:05:55Z</time>
      </trkpt>
      <trkpt lat="44.9184" lon="5.22233">
        <ele>1159.01</ele>
        <time>2017-10-01T16:06:06Z</time>
      </trkpt>
      <trkpt lat="44.91833" lon="5.2223">
        <ele>1159.97</ele>
        <time>2017-10-01T16:06:19Z</time>
      </trkpt>
      <trkpt lat="44.91832" lon="5.22224">
        <ele>1161.41</ele>
        <time>2017-10-01T16:06:30Z</time>
      </trkpt>
      <trkpt lat="44.91835" lon="5.22211">
        <ele>1163.81</ele>
        <time>2017-10-01T16:06:43Z</time>
      </trkpt>
      <trkpt lat="44.91837" lon="5.22193">
        <ele>1166.22</ele>
        <time>2017-10-01T16:06:56Z</time>
      </trkpt>
      <trkpt lat="44.91833" lon="5.2218">
        <ele>1168.14</ele>
        <time>2017-10-01T16:07:05Z</time>
      </trkpt>
      <trkpt lat="44.91829" lon="5.2217">
        <ele>1170.54</ele>
        <time>2017-10-01T16:07:14Z</time>
      </trkpt>
      <trkpt lat="44.91826" lon="5.22165">
        <ele>1171.02</ele>
        <time>2017-10-01T16:07:19Z</time>
      </trkpt>
      <trkpt lat="44.91819" lon="5.2215">
        <ele>1172.95</ele>
        <time>2017-10-01T16:07:30Z</time>
      </trkpt>
      <trkpt lat="44.91817" lon="5.22143">
        <ele>1173.91</ele>
        <time>2017-10-01T16:07:35Z</time>
      </trkpt>
      <trkpt lat="44.91815" lon="5.22139">
        <ele>1174.39</ele>
        <time>2017-10-01T16:07:39Z</time>
      </trkpt>
      <trkpt lat="44.91815" lon="5.22136">
        <ele>1174.87</ele>
        <time>2017-10-01T16:07:41Z</time>
      </trkpt>
      <trkpt lat="44.91814" lon="5.22133">
        <ele>1174.87</ele>
        <time>2017-10-01T16:07:43Z</time>
      </trkpt>
      <trkpt lat="44.91814" lon="5.22124">
        <ele>1175.83</ele>
        <time>2017-10-01T16:07:51Z</time>
      </trkpt>
      <trkpt lat="44.91815" lon="5.22106">
        <ele>1178.23</ele>
        <time>2017-10-01T16:08:04Z</time>
      </trkpt>
      <trkpt lat="44.91816" lon="5.22089">
        <ele>1180.64</ele>
        <time>2017-10-01T16:08:16Z</time>
      </trkpt>
      <trkpt lat="44.91815" lon="5.22082">
        <ele>1180.64</ele>
        <time>2017-10-01T16:08:31Z</time>
      </trkpt>
      <trkpt lat="44.91816" lon="5.22077">
        <ele>1181.12</ele>
        <time>2017-10-01T16:08:49Z</time>
      </trkpt>
      <trkpt lat="44.91818" lon="5.22067">
        <ele>1181.6</ele>
        <time>2017-10-01T16:08:57Z</time>
      </trkpt>
      <trkpt lat="44.91816" lon="5.22058">
        <ele>1182.08</ele>
        <time>2017-10-01T16:09:03Z</time>
      </trkpt>
      <trkpt lat="44.9182" lon="5.22048">
        <ele>1182.56</ele>
        <time>2017-10-01T16:09:14Z</time>
      </trkpt>
      <trkpt lat="44.91821" lon="5.22045">
        <ele>1183.04</ele>
        <time>2017-10-01T16:09:32Z</time>
      </trkpt>
      <trkpt lat="44.91821" lon="5.22045">
        <ele>1182.56</ele>
        <time>2017-10-01T16:09:48Z</time>
      </trkpt>
      <trkpt lat="44.91823" lon="5.22041">
        <ele>1184</ele>
        <time>2017-10-01T16:10:00Z</time>
      </trkpt>
      <trkpt lat="44.91827" lon="5.22032">
        <ele>1185.44</ele>
        <time>2017-10-01T16:10:11Z</time>
      </trkpt>
      <trkpt lat="44.91828" lon="5.2203">
        <ele>1185.44</ele>
        <time>2017-10-01T16:10:12Z</time>
      </trkpt>
      <trkpt lat="44.91829" lon="5.22026">
        <ele>1185.44</ele>
        <time>2017-10-01T16:10:16Z</time>
      </trkpt>
      <trkpt lat="44.9184" lon="5.22008">
        <ele>1185.44</ele>
        <time>2017-10-01T16:10:27Z</time>
      </trkpt>
      <trkpt lat="44.91841" lon="5.21995">
        <ele>1185.44</ele>
        <time>2017-10-01T16:10:37Z</time>
      </trkpt>
      <trkpt lat="44.91841" lon="5.2199">
        <ele>1185.44</ele>
        <time>2017-10-01T16:10:40Z</time>
      </trkpt>
      <trkpt lat="44.9184" lon="5.21982">
        <ele>1185.44</ele>
        <time>2017-10-01T16:10:45Z</time>
      </trkpt>
      <trkpt lat="44.91841" lon="5.21973">
        <ele>1185.44</ele>
        <time>2017-10-01T16:10:55Z</time>
      </trkpt>
      <trkpt lat="44.91841" lon="5.21973">
        <ele>1185.44</ele>
        <time>2017-10-01T16:11:15Z</time>
      </trkpt>
    </trkseg>
  </trk>
</gpx>